<?xml version="1.0" encoding="UTF-8" standalone="no" ?>
<gpx xmlns="http://www.topografix.com/GPX/1/1" xmlns:xsi="http://www.w3.org/2001/XMLSchema-instance" xsi:schemaLocation="http://www.topografix.com/GPX/1/1 http://www.topografix.com/GPX/1/1/gpx.xsd" version="1.1" creator="VisuGPX - https://www.visugpx.com">
  <metadata>
    <name>Ténébra et Limpio</name>
    <desc><![CDATA[Quand le carrefour d\'Epernon nous attire !!
]]></desc>
  </metadata>
  <trk>
    <name><![CDATA[Balade avec Limpio]]></name>
    <trkseg>
      <trkpt lat="48.70237" lon="1.75257">
        <ele>179.19999694824</ele>
        <time>2014-01-21T09:56:11.000Z</time>
      </trkpt>
      <trkpt lat="48.70234" lon="1.75257">
        <ele>179.19999694824</ele>
        <time>2014-01-21T09:56:13.000Z</time>
      </trkpt>
      <trkpt lat="48.70231" lon="1.75254">
        <ele>179</ele>
        <time>2014-01-21T09:56:15.000Z</time>
      </trkpt>
      <trkpt lat="48.70219" lon="1.7525">
        <ele>178.60000610352</ele>
        <time>2014-01-21T09:56:22.000Z</time>
      </trkpt>
      <trkpt lat="48.70213" lon="1.75249">
        <ele>178.19999694824</ele>
        <time>2014-01-21T09:56:26.000Z</time>
      </trkpt>
      <trkpt lat="48.70204" lon="1.7525">
        <ele>177.80000305176</ele>
        <time>2014-01-21T09:56:32.000Z</time>
      </trkpt>
      <trkpt lat="48.70201" lon="1.75251">
        <ele>177.60000610352</ele>
        <time>2014-01-21T09:56:36.000Z</time>
      </trkpt>
      <trkpt lat="48.70194" lon="1.75255">
        <ele>177.39999389648</ele>
        <time>2014-01-21T09:56:43.000Z</time>
      </trkpt>
      <trkpt lat="48.70184" lon="1.75255">
        <ele>176.80000305176</ele>
        <time>2014-01-21T09:56:51.000Z</time>
      </trkpt>
      <trkpt lat="48.70174" lon="1.75257">
        <ele>176.39999389648</ele>
        <time>2014-01-21T09:57:00.000Z</time>
      </trkpt>
      <trkpt lat="48.7017" lon="1.75259">
        <ele>176.19999694824</ele>
        <time>2014-01-21T09:57:04.000Z</time>
      </trkpt>
      <trkpt lat="48.70165" lon="1.75261">
        <ele>176</ele>
        <time>2014-01-21T09:57:09.000Z</time>
      </trkpt>
      <trkpt lat="48.70161" lon="1.75263">
        <ele>176</ele>
        <time>2014-01-21T09:57:13.000Z</time>
      </trkpt>
      <trkpt lat="48.70155" lon="1.75269">
        <ele>175.80000305176</ele>
        <time>2014-01-21T09:57:21.000Z</time>
      </trkpt>
      <trkpt lat="48.70152" lon="1.75272">
        <ele>175.80000305176</ele>
        <time>2014-01-21T09:57:24.000Z</time>
      </trkpt>
      <trkpt lat="48.70144" lon="1.75274">
        <ele>175.80000305176</ele>
        <time>2014-01-21T09:57:31.000Z</time>
      </trkpt>
      <trkpt lat="48.70142" lon="1.75275">
        <ele>175.80000305176</ele>
        <time>2014-01-21T09:57:33.000Z</time>
      </trkpt>
      <trkpt lat="48.70135" lon="1.75278">
        <ele>175.60000610352</ele>
        <time>2014-01-21T09:57:40.000Z</time>
      </trkpt>
      <trkpt lat="48.70124" lon="1.75285">
        <ele>175.39999389648</ele>
        <time>2014-01-21T09:57:47.000Z</time>
      </trkpt>
      <trkpt lat="48.70111" lon="1.75293">
        <ele>175</ele>
        <time>2014-01-21T09:57:57.000Z</time>
      </trkpt>
      <trkpt lat="48.70106" lon="1.75296">
        <ele>174.80000305176</ele>
        <time>2014-01-21T09:58:01.000Z</time>
      </trkpt>
      <trkpt lat="48.70097" lon="1.75301">
        <ele>174.39999389648</ele>
        <time>2014-01-21T09:58:09.000Z</time>
      </trkpt>
      <trkpt lat="48.70087" lon="1.75305">
        <ele>174</ele>
        <time>2014-01-21T09:58:17.000Z</time>
      </trkpt>
      <trkpt lat="48.70084" lon="1.75305">
        <ele>174</ele>
        <time>2014-01-21T09:58:20.000Z</time>
      </trkpt>
      <trkpt lat="48.70073" lon="1.75308">
        <ele>173.80000305176</ele>
        <time>2014-01-21T09:58:29.000Z</time>
      </trkpt>
      <trkpt lat="48.70072" lon="1.75309">
        <ele>173.80000305176</ele>
        <time>2014-01-21T09:58:30.000Z</time>
      </trkpt>
      <trkpt lat="48.70061" lon="1.75313">
        <ele>173.39999389648</ele>
        <time>2014-01-21T09:58:38.000Z</time>
      </trkpt>
      <trkpt lat="48.70056" lon="1.75316">
        <ele>173.19999694824</ele>
        <time>2014-01-21T09:58:42.000Z</time>
      </trkpt>
      <trkpt lat="48.70047" lon="1.75321">
        <ele>173</ele>
        <time>2014-01-21T09:58:48.000Z</time>
      </trkpt>
      <trkpt lat="48.70046" lon="1.75321">
        <ele>173</ele>
        <time>2014-01-21T09:58:49.000Z</time>
      </trkpt>
      <trkpt lat="48.70036" lon="1.75327">
        <ele>172.60000610352</ele>
        <time>2014-01-21T09:58:55.000Z</time>
      </trkpt>
      <trkpt lat="48.7003" lon="1.7533">
        <ele>172.39999389648</ele>
        <time>2014-01-21T09:59:00.000Z</time>
      </trkpt>
      <trkpt lat="48.70016" lon="1.75334">
        <ele>172.19999694824</ele>
        <time>2014-01-21T09:59:08.000Z</time>
      </trkpt>
      <trkpt lat="48.70009" lon="1.75337">
        <ele>172</ele>
        <time>2014-01-21T09:59:13.000Z</time>
      </trkpt>
      <trkpt lat="48.70005" lon="1.75343">
        <ele>171.80000305176</ele>
        <time>2014-01-21T09:59:17.000Z</time>
      </trkpt>
      <trkpt lat="48.70003" lon="1.75345">
        <ele>171.60000610352</ele>
        <time>2014-01-21T09:59:19.000Z</time>
      </trkpt>
      <trkpt lat="48.69991" lon="1.75345">
        <ele>171.80000305176</ele>
        <time>2014-01-21T09:59:27.000Z</time>
      </trkpt>
      <trkpt lat="48.69987" lon="1.75348">
        <ele>171.60000610352</ele>
        <time>2014-01-21T09:59:30.000Z</time>
      </trkpt>
      <trkpt lat="48.69981" lon="1.75352">
        <ele>171.60000610352</ele>
        <time>2014-01-21T09:59:35.000Z</time>
      </trkpt>
      <trkpt lat="48.69975" lon="1.75359">
        <ele>171.60000610352</ele>
        <time>2014-01-21T09:59:41.000Z</time>
      </trkpt>
      <trkpt lat="48.69967" lon="1.75365">
        <ele>171.60000610352</ele>
        <time>2014-01-21T09:59:47.000Z</time>
      </trkpt>
      <trkpt lat="48.69963" lon="1.75366">
        <ele>171.60000610352</ele>
        <time>2014-01-21T09:59:50.000Z</time>
      </trkpt>
      <trkpt lat="48.69957" lon="1.7537">
        <ele>171.60000610352</ele>
        <time>2014-01-21T09:59:55.000Z</time>
      </trkpt>
      <trkpt lat="48.69951" lon="1.75376">
        <ele>171.60000610352</ele>
        <time>2014-01-21T09:59:59.000Z</time>
      </trkpt>
      <trkpt lat="48.69941" lon="1.75382">
        <ele>171.80000305176</ele>
        <time>2014-01-21T10:00:06.000Z</time>
      </trkpt>
      <trkpt lat="48.69932" lon="1.75385">
        <ele>172</ele>
        <time>2014-01-21T10:00:13.000Z</time>
      </trkpt>
      <trkpt lat="48.69927" lon="1.75387">
        <ele>172</ele>
        <time>2014-01-21T10:00:20.000Z</time>
      </trkpt>
      <trkpt lat="48.69925" lon="1.75388">
        <ele>172.19999694824</ele>
        <time>2014-01-21T10:00:21.000Z</time>
      </trkpt>
      <trkpt lat="48.69915" lon="1.7539">
        <ele>172.19999694824</ele>
        <time>2014-01-21T10:00:29.000Z</time>
      </trkpt>
      <trkpt lat="48.69912" lon="1.75392">
        <ele>172.19999694824</ele>
        <time>2014-01-21T10:00:32.000Z</time>
      </trkpt>
      <trkpt lat="48.69904" lon="1.75396">
        <ele>172</ele>
        <time>2014-01-21T10:00:40.000Z</time>
      </trkpt>
      <trkpt lat="48.69901" lon="1.75398">
        <ele>172</ele>
        <time>2014-01-21T10:00:42.000Z</time>
      </trkpt>
      <trkpt lat="48.69895" lon="1.75402">
        <ele>171.60000610352</ele>
        <time>2014-01-21T10:00:47.000Z</time>
      </trkpt>
      <trkpt lat="48.69885" lon="1.75403">
        <ele>171.39999389648</ele>
        <time>2014-01-21T10:00:56.000Z</time>
      </trkpt>
      <trkpt lat="48.69879" lon="1.75403">
        <ele>171.39999389648</ele>
        <time>2014-01-21T10:01:03.000Z</time>
      </trkpt>
      <trkpt lat="48.69874" lon="1.75407">
        <ele>171.19999694824</ele>
        <time>2014-01-21T10:01:07.000Z</time>
      </trkpt>
      <trkpt lat="48.69863" lon="1.75414">
        <ele>170.80000305176</ele>
        <time>2014-01-21T10:01:16.000Z</time>
      </trkpt>
      <trkpt lat="48.69859" lon="1.75416">
        <ele>170.60000610352</ele>
        <time>2014-01-21T10:01:20.000Z</time>
      </trkpt>
      <trkpt lat="48.69855" lon="1.75419">
        <ele>170.39999389648</ele>
        <time>2014-01-21T10:01:23.000Z</time>
      </trkpt>
      <trkpt lat="48.69849" lon="1.75421">
        <ele>170.19999694824</ele>
        <time>2014-01-21T10:01:28.000Z</time>
      </trkpt>
      <trkpt lat="48.69841" lon="1.75422">
        <ele>170</ele>
        <time>2014-01-21T10:01:35.000Z</time>
      </trkpt>
      <trkpt lat="48.69834" lon="1.75423">
        <ele>169.80000305176</ele>
        <time>2014-01-21T10:01:41.000Z</time>
      </trkpt>
      <trkpt lat="48.69825" lon="1.75425">
        <ele>169.39999389648</ele>
        <time>2014-01-21T10:01:49.000Z</time>
      </trkpt>
      <trkpt lat="48.69819" lon="1.75429">
        <ele>169</ele>
        <time>2014-01-21T10:01:54.000Z</time>
      </trkpt>
      <trkpt lat="48.69806" lon="1.7544">
        <ele>168</ele>
        <time>2014-01-21T10:02:03.000Z</time>
      </trkpt>
      <trkpt lat="48.69798" lon="1.75444">
        <ele>167.60000610352</ele>
        <time>2014-01-21T10:02:11.000Z</time>
      </trkpt>
      <trkpt lat="48.69794" lon="1.75448">
        <ele>167.19999694824</ele>
        <time>2014-01-21T10:02:15.000Z</time>
      </trkpt>
      <trkpt lat="48.69787" lon="1.75449">
        <ele>167</ele>
        <time>2014-01-21T10:02:20.000Z</time>
      </trkpt>
      <trkpt lat="48.6978" lon="1.75452">
        <ele>166.60000610352</ele>
        <time>2014-01-21T10:02:26.000Z</time>
      </trkpt>
      <trkpt lat="48.69776" lon="1.75452">
        <ele>166.39999389648</ele>
        <time>2014-01-21T10:02:30.000Z</time>
      </trkpt>
      <trkpt lat="48.69769" lon="1.75452">
        <ele>166</ele>
        <time>2014-01-21T10:02:36.000Z</time>
      </trkpt>
      <trkpt lat="48.6976" lon="1.75456">
        <ele>165.60000610352</ele>
        <time>2014-01-21T10:02:44.000Z</time>
      </trkpt>
      <trkpt lat="48.69751" lon="1.7546">
        <ele>165</ele>
        <time>2014-01-21T10:02:51.000Z</time>
      </trkpt>
      <trkpt lat="48.69739" lon="1.75465">
        <ele>164.19999694824</ele>
        <time>2014-01-21T10:03:00.000Z</time>
      </trkpt>
      <trkpt lat="48.69728" lon="1.7547">
        <ele>163.39999389648</ele>
        <time>2014-01-21T10:03:08.000Z</time>
      </trkpt>
      <trkpt lat="48.69721" lon="1.75473">
        <ele>162.80000305176</ele>
        <time>2014-01-21T10:03:14.000Z</time>
      </trkpt>
      <trkpt lat="48.69709" lon="1.7548">
        <ele>162</ele>
        <time>2014-01-21T10:03:22.000Z</time>
      </trkpt>
      <trkpt lat="48.69698" lon="1.75486">
        <ele>161.19999694824</ele>
        <time>2014-01-21T10:03:29.000Z</time>
      </trkpt>
      <trkpt lat="48.6969" lon="1.7549">
        <ele>160.60000610352</ele>
        <time>2014-01-21T10:03:35.000Z</time>
      </trkpt>
      <trkpt lat="48.69681" lon="1.75494">
        <ele>160</ele>
        <time>2014-01-21T10:03:42.000Z</time>
      </trkpt>
      <trkpt lat="48.6967" lon="1.755">
        <ele>159.19999694824</ele>
        <time>2014-01-21T10:03:51.000Z</time>
      </trkpt>
      <trkpt lat="48.69662" lon="1.75504">
        <ele>158.80000305176</ele>
        <time>2014-01-21T10:03:58.000Z</time>
      </trkpt>
      <trkpt lat="48.69654" lon="1.75507">
        <ele>158.39999389648</ele>
        <time>2014-01-21T10:04:05.000Z</time>
      </trkpt>
      <trkpt lat="48.69651" lon="1.7551">
        <ele>158.39999389648</ele>
        <time>2014-01-21T10:04:08.000Z</time>
      </trkpt>
      <trkpt lat="48.69645" lon="1.75513">
        <ele>158.19999694824</ele>
        <time>2014-01-21T10:04:13.000Z</time>
      </trkpt>
      <trkpt lat="48.69636" lon="1.75517">
        <ele>157.80000305176</ele>
        <time>2014-01-21T10:04:20.000Z</time>
      </trkpt>
      <trkpt lat="48.6963" lon="1.7552">
        <ele>157.60000610352</ele>
        <time>2014-01-21T10:04:25.000Z</time>
      </trkpt>
      <trkpt lat="48.69622" lon="1.75523">
        <ele>157.19999694824</ele>
        <time>2014-01-21T10:04:32.000Z</time>
      </trkpt>
      <trkpt lat="48.69614" lon="1.75526">
        <ele>157</ele>
        <time>2014-01-21T10:04:38.000Z</time>
      </trkpt>
      <trkpt lat="48.69605" lon="1.7553">
        <ele>156.60000610352</ele>
        <time>2014-01-21T10:04:45.000Z</time>
      </trkpt>
      <trkpt lat="48.69597" lon="1.75536">
        <ele>156.39999389648</ele>
        <time>2014-01-21T10:04:52.000Z</time>
      </trkpt>
      <trkpt lat="48.69589" lon="1.75541">
        <ele>156.19999694824</ele>
        <time>2014-01-21T10:04:58.000Z</time>
      </trkpt>
      <trkpt lat="48.69582" lon="1.75543">
        <ele>156</ele>
        <time>2014-01-21T10:05:04.000Z</time>
      </trkpt>
      <trkpt lat="48.69579" lon="1.75544">
        <ele>156</ele>
        <time>2014-01-21T10:05:06.000Z</time>
      </trkpt>
      <trkpt lat="48.69574" lon="1.75546">
        <ele>155.80000305176</ele>
        <time>2014-01-21T10:05:10.000Z</time>
      </trkpt>
      <trkpt lat="48.69568" lon="1.75549">
        <ele>155.80000305176</ele>
        <time>2014-01-21T10:05:16.000Z</time>
      </trkpt>
      <trkpt lat="48.69567" lon="1.7555">
        <ele>155.80000305176</ele>
        <time>2014-01-21T10:05:20.000Z</time>
      </trkpt>
      <trkpt lat="48.69563" lon="1.75543">
        <ele>155.80000305176</ele>
        <time>2014-01-21T10:05:29.000Z</time>
      </trkpt>
      <trkpt lat="48.6956" lon="1.75526">
        <ele>155.60000610352</ele>
        <time>2014-01-21T10:05:33.000Z</time>
      </trkpt>
      <trkpt lat="48.69552" lon="1.7549">
        <ele>155.39999389648</ele>
        <time>2014-01-21T10:05:40.000Z</time>
      </trkpt>
      <trkpt lat="48.69543" lon="1.75459">
        <ele>155.60000610352</ele>
        <time>2014-01-21T10:05:46.000Z</time>
      </trkpt>
      <trkpt lat="48.69531" lon="1.75414">
        <ele>155.60000610352</ele>
        <time>2014-01-21T10:05:54.000Z</time>
      </trkpt>
      <trkpt lat="48.69524" lon="1.75386">
        <ele>156</ele>
        <time>2014-01-21T10:05:59.000Z</time>
      </trkpt>
      <trkpt lat="48.69514" lon="1.75347">
        <ele>157</ele>
        <time>2014-01-21T10:06:06.000Z</time>
      </trkpt>
      <trkpt lat="48.69504" lon="1.75307">
        <ele>158.39999389648</ele>
        <time>2014-01-21T10:06:13.000Z</time>
      </trkpt>
      <trkpt lat="48.69496" lon="1.75275">
        <ele>159.80000305176</ele>
        <time>2014-01-21T10:06:19.000Z</time>
      </trkpt>
      <trkpt lat="48.69487" lon="1.75243">
        <ele>161.19999694824</ele>
        <time>2014-01-21T10:06:25.000Z</time>
      </trkpt>
      <trkpt lat="48.69482" lon="1.75211">
        <ele>162.39999389648</ele>
        <time>2014-01-21T10:06:31.000Z</time>
      </trkpt>
      <trkpt lat="48.69473" lon="1.75173">
        <ele>164</ele>
        <time>2014-01-21T10:06:38.000Z</time>
      </trkpt>
      <trkpt lat="48.69468" lon="1.75151">
        <ele>164.80000305176</ele>
        <time>2014-01-21T10:06:42.000Z</time>
      </trkpt>
      <trkpt lat="48.6946" lon="1.75118">
        <ele>166</ele>
        <time>2014-01-21T10:06:48.000Z</time>
      </trkpt>
      <trkpt lat="48.69453" lon="1.75095">
        <ele>166.80000305176</ele>
        <time>2014-01-21T10:06:53.000Z</time>
      </trkpt>
      <trkpt lat="48.69443" lon="1.75075">
        <ele>167.39999389648</ele>
        <time>2014-01-21T10:06:58.000Z</time>
      </trkpt>
      <trkpt lat="48.69435" lon="1.75069">
        <ele>167.60000610352</ele>
        <time>2014-01-21T10:07:01.000Z</time>
      </trkpt>
      <trkpt lat="48.69417" lon="1.75075">
        <ele>168</ele>
        <time>2014-01-21T10:07:08.000Z</time>
      </trkpt>
      <trkpt lat="48.69403" lon="1.75082">
        <ele>167.60000610352</ele>
        <time>2014-01-21T10:07:14.000Z</time>
      </trkpt>
      <trkpt lat="48.6939" lon="1.75085">
        <ele>167.19999694824</ele>
        <time>2014-01-21T10:07:20.000Z</time>
      </trkpt>
      <trkpt lat="48.69387" lon="1.75086">
        <ele>167.19999694824</ele>
        <time>2014-01-21T10:07:24.000Z</time>
      </trkpt>
      <trkpt lat="48.69381" lon="1.75086">
        <ele>167</ele>
        <time>2014-01-21T10:07:32.000Z</time>
      </trkpt>
      <trkpt lat="48.69378" lon="1.75087">
        <ele>167</ele>
        <time>2014-01-21T10:07:33.000Z</time>
      </trkpt>
      <trkpt lat="48.69371" lon="1.75098">
        <ele>166.60000610352</ele>
        <time>2014-01-21T10:07:39.000Z</time>
      </trkpt>
      <trkpt lat="48.69354" lon="1.75106">
        <ele>166</ele>
        <time>2014-01-21T10:07:46.000Z</time>
      </trkpt>
      <trkpt lat="48.69345" lon="1.7511">
        <ele>165.80000305176</ele>
        <time>2014-01-21T10:07:52.000Z</time>
      </trkpt>
      <trkpt lat="48.69335" lon="1.75114">
        <ele>165.60000610352</ele>
        <time>2014-01-21T10:07:59.000Z</time>
      </trkpt>
      <trkpt lat="48.69331" lon="1.75114">
        <ele>165.80000305176</ele>
        <time>2014-01-21T10:08:02.000Z</time>
      </trkpt>
      <trkpt lat="48.69323" lon="1.75118">
        <ele>166.19999694824</ele>
        <time>2014-01-21T10:08:09.000Z</time>
      </trkpt>
      <trkpt lat="48.69308" lon="1.75126">
        <ele>167.19999694824</ele>
        <time>2014-01-21T10:08:16.000Z</time>
      </trkpt>
      <trkpt lat="48.69293" lon="1.75138">
        <ele>168.19999694824</ele>
        <time>2014-01-21T10:08:21.000Z</time>
      </trkpt>
      <trkpt lat="48.69281" lon="1.75143">
        <ele>169.19999694824</ele>
        <time>2014-01-21T10:08:25.000Z</time>
      </trkpt>
      <trkpt lat="48.69272" lon="1.75146">
        <ele>169.80000305176</ele>
        <time>2014-01-21T10:08:33.000Z</time>
      </trkpt>
      <trkpt lat="48.69263" lon="1.7515">
        <ele>170.60000610352</ele>
        <time>2014-01-21T10:08:40.000Z</time>
      </trkpt>
      <trkpt lat="48.69256" lon="1.75153">
        <ele>171.19999694824</ele>
        <time>2014-01-21T10:08:45.000Z</time>
      </trkpt>
      <trkpt lat="48.69243" lon="1.7516">
        <ele>171.60000610352</ele>
        <time>2014-01-21T10:08:54.000Z</time>
      </trkpt>
      <trkpt lat="48.6923" lon="1.75164">
        <ele>171.19999694824</ele>
        <time>2014-01-21T10:09:03.000Z</time>
      </trkpt>
      <trkpt lat="48.69221" lon="1.75168">
        <ele>171</ele>
        <time>2014-01-21T10:09:10.000Z</time>
      </trkpt>
      <trkpt lat="48.69211" lon="1.75172">
        <ele>170.39999389648</ele>
        <time>2014-01-21T10:09:17.000Z</time>
      </trkpt>
      <trkpt lat="48.69201" lon="1.75176">
        <ele>170</ele>
        <time>2014-01-21T10:09:24.000Z</time>
      </trkpt>
      <trkpt lat="48.69189" lon="1.75179">
        <ele>169.60000610352</ele>
        <time>2014-01-21T10:09:33.000Z</time>
      </trkpt>
      <trkpt lat="48.69178" lon="1.75182">
        <ele>169.19999694824</ele>
        <time>2014-01-21T10:09:41.000Z</time>
      </trkpt>
      <trkpt lat="48.69171" lon="1.75188">
        <ele>168.80000305176</ele>
        <time>2014-01-21T10:09:45.000Z</time>
      </trkpt>
      <trkpt lat="48.69159" lon="1.75192">
        <ele>167.80000305176</ele>
        <time>2014-01-21T10:09:53.000Z</time>
      </trkpt>
      <trkpt lat="48.69148" lon="1.75202">
        <ele>166.19999694824</ele>
        <time>2014-01-21T10:10:01.000Z</time>
      </trkpt>
      <trkpt lat="48.69139" lon="1.75207">
        <ele>165.19999694824</ele>
        <time>2014-01-21T10:10:07.000Z</time>
      </trkpt>
      <trkpt lat="48.69133" lon="1.75212">
        <ele>164.39999389648</ele>
        <time>2014-01-21T10:10:12.000Z</time>
      </trkpt>
      <trkpt lat="48.69123" lon="1.75216">
        <ele>163.19999694824</ele>
        <time>2014-01-21T10:10:19.000Z</time>
      </trkpt>
      <trkpt lat="48.69113" lon="1.75224">
        <ele>162.19999694824</ele>
        <time>2014-01-21T10:10:26.000Z</time>
      </trkpt>
      <trkpt lat="48.69105" lon="1.75227">
        <ele>161.19999694824</ele>
        <time>2014-01-21T10:10:33.000Z</time>
      </trkpt>
      <trkpt lat="48.69097" lon="1.7523">
        <ele>160.39999389648</ele>
        <time>2014-01-21T10:10:39.000Z</time>
      </trkpt>
      <trkpt lat="48.69088" lon="1.75234">
        <ele>159.39999389648</ele>
        <time>2014-01-21T10:10:46.000Z</time>
      </trkpt>
      <trkpt lat="48.6908" lon="1.75237">
        <ele>158.60000610352</ele>
        <time>2014-01-21T10:10:52.000Z</time>
      </trkpt>
      <trkpt lat="48.69073" lon="1.75241">
        <ele>158.39999389648</ele>
        <time>2014-01-21T10:10:58.000Z</time>
      </trkpt>
      <trkpt lat="48.69057" lon="1.7525">
        <ele>157.80000305176</ele>
        <time>2014-01-21T10:11:07.000Z</time>
      </trkpt>
      <trkpt lat="48.69048" lon="1.75254">
        <ele>157.39999389648</ele>
        <time>2014-01-21T10:11:14.000Z</time>
      </trkpt>
      <trkpt lat="48.6904" lon="1.75259">
        <ele>157</ele>
        <time>2014-01-21T10:11:21.000Z</time>
      </trkpt>
      <trkpt lat="48.69032" lon="1.75262">
        <ele>156.80000305176</ele>
        <time>2014-01-21T10:11:28.000Z</time>
      </trkpt>
      <trkpt lat="48.69023" lon="1.75261">
        <ele>156.19999694824</ele>
        <time>2014-01-21T10:11:36.000Z</time>
      </trkpt>
      <trkpt lat="48.69015" lon="1.75268">
        <ele>156</ele>
        <time>2014-01-21T10:11:43.000Z</time>
      </trkpt>
      <trkpt lat="48.6901" lon="1.75275">
        <ele>156</ele>
        <time>2014-01-21T10:11:49.000Z</time>
      </trkpt>
      <trkpt lat="48.69008" lon="1.75275">
        <ele>156</ele>
        <time>2014-01-21T10:11:50.000Z</time>
      </trkpt>
      <trkpt lat="48.68999" lon="1.75277">
        <ele>155.60000610352</ele>
        <time>2014-01-21T10:11:57.000Z</time>
      </trkpt>
      <trkpt lat="48.68993" lon="1.75279">
        <ele>155.39999389648</ele>
        <time>2014-01-21T10:12:02.000Z</time>
      </trkpt>
      <trkpt lat="48.6898" lon="1.75287">
        <ele>155.39999389648</ele>
        <time>2014-01-21T10:12:10.000Z</time>
      </trkpt>
      <trkpt lat="48.68968" lon="1.75289">
        <ele>155</ele>
        <time>2014-01-21T10:12:19.000Z</time>
      </trkpt>
      <trkpt lat="48.68959" lon="1.75284">
        <ele>154.60000610352</ele>
        <time>2014-01-21T10:12:26.000Z</time>
      </trkpt>
      <trkpt lat="48.68953" lon="1.75277">
        <ele>154.39999389648</ele>
        <time>2014-01-21T10:12:31.000Z</time>
      </trkpt>
      <trkpt lat="48.68947" lon="1.75266">
        <ele>154</ele>
        <time>2014-01-21T10:12:37.000Z</time>
      </trkpt>
      <trkpt lat="48.68946" lon="1.75264">
        <ele>154</ele>
        <time>2014-01-21T10:12:38.000Z</time>
      </trkpt>
      <trkpt lat="48.68944" lon="1.75257">
        <ele>153.80000305176</ele>
        <time>2014-01-21T10:12:42.000Z</time>
      </trkpt>
      <trkpt lat="48.6894" lon="1.7525">
        <ele>153.60000610352</ele>
        <time>2014-01-21T10:12:46.000Z</time>
      </trkpt>
      <trkpt lat="48.68935" lon="1.75241">
        <ele>153.39999389648</ele>
        <time>2014-01-21T10:12:51.000Z</time>
      </trkpt>
      <trkpt lat="48.68929" lon="1.75229">
        <ele>153.19999694824</ele>
        <time>2014-01-21T10:12:58.000Z</time>
      </trkpt>
      <trkpt lat="48.68923" lon="1.75219">
        <ele>153.19999694824</ele>
        <time>2014-01-21T10:13:04.000Z</time>
      </trkpt>
      <trkpt lat="48.68915" lon="1.75204">
        <ele>153</ele>
        <time>2014-01-21T10:13:13.000Z</time>
      </trkpt>
      <trkpt lat="48.68914" lon="1.75203">
        <ele>153</ele>
        <time>2014-01-21T10:13:14.000Z</time>
      </trkpt>
      <trkpt lat="48.68908" lon="1.75193">
        <ele>153.19999694824</ele>
        <time>2014-01-21T10:13:21.000Z</time>
      </trkpt>
      <trkpt lat="48.689" lon="1.75182">
        <ele>153.39999389648</ele>
        <time>2014-01-21T10:13:29.000Z</time>
      </trkpt>
      <trkpt lat="48.68898" lon="1.75179">
        <ele>153.39999389648</ele>
        <time>2014-01-21T10:13:31.000Z</time>
      </trkpt>
      <trkpt lat="48.68898" lon="1.7517">
        <ele>153.39999389648</ele>
        <time>2014-01-21T10:13:35.000Z</time>
      </trkpt>
      <trkpt lat="48.68894" lon="1.75156">
        <ele>153.60000610352</ele>
        <time>2014-01-21T10:13:42.000Z</time>
      </trkpt>
      <trkpt lat="48.68887" lon="1.75141">
        <ele>154</ele>
        <time>2014-01-21T10:13:50.000Z</time>
      </trkpt>
      <trkpt lat="48.68882" lon="1.75132">
        <ele>154</ele>
        <time>2014-01-21T10:13:56.000Z</time>
      </trkpt>
      <trkpt lat="48.68878" lon="1.75122">
        <ele>154.19999694824</ele>
        <time>2014-01-21T10:14:02.000Z</time>
      </trkpt>
      <trkpt lat="48.68872" lon="1.75109">
        <ele>154.39999389648</ele>
        <time>2014-01-21T10:14:10.000Z</time>
      </trkpt>
      <trkpt lat="48.68869" lon="1.75101">
        <ele>154.39999389648</ele>
        <time>2014-01-21T10:14:15.000Z</time>
      </trkpt>
      <trkpt lat="48.68863" lon="1.75089">
        <ele>154.60000610352</ele>
        <time>2014-01-21T10:14:22.000Z</time>
      </trkpt>
      <trkpt lat="48.68858" lon="1.7508">
        <ele>154.80000305176</ele>
        <time>2014-01-21T10:14:28.000Z</time>
      </trkpt>
      <trkpt lat="48.68851" lon="1.75064">
        <ele>154.80000305176</ele>
        <time>2014-01-21T10:14:36.000Z</time>
      </trkpt>
      <trkpt lat="48.68845" lon="1.75056">
        <ele>154.80000305176</ele>
        <time>2014-01-21T10:14:42.000Z</time>
      </trkpt>
      <trkpt lat="48.68839" lon="1.75045">
        <ele>155</ele>
        <time>2014-01-21T10:14:48.000Z</time>
      </trkpt>
      <trkpt lat="48.68833" lon="1.75036">
        <ele>155</ele>
        <time>2014-01-21T10:14:54.000Z</time>
      </trkpt>
      <trkpt lat="48.68829" lon="1.75024">
        <ele>155</ele>
        <time>2014-01-21T10:15:00.000Z</time>
      </trkpt>
      <trkpt lat="48.68823" lon="1.75012">
        <ele>155.19999694824</ele>
        <time>2014-01-21T10:15:07.000Z</time>
      </trkpt>
      <trkpt lat="48.68822" lon="1.75011">
        <ele>155.19999694824</ele>
        <time>2014-01-21T10:15:08.000Z</time>
      </trkpt>
      <trkpt lat="48.6882" lon="1.75009">
        <ele>155.19999694824</ele>
        <time>2014-01-21T10:15:14.000Z</time>
      </trkpt>
      <trkpt lat="48.68817" lon="1.75003">
        <ele>155.19999694824</ele>
        <time>2014-01-21T10:15:19.000Z</time>
      </trkpt>
      <trkpt lat="48.68812" lon="1.7499">
        <ele>155.39999389648</ele>
        <time>2014-01-21T10:15:26.000Z</time>
      </trkpt>
      <trkpt lat="48.68808" lon="1.74981">
        <ele>155.60000610352</ele>
        <time>2014-01-21T10:15:32.000Z</time>
      </trkpt>
      <trkpt lat="48.68805" lon="1.74968">
        <ele>155.80000305176</ele>
        <time>2014-01-21T10:15:40.000Z</time>
      </trkpt>
      <trkpt lat="48.68803" lon="1.74959">
        <ele>155.80000305176</ele>
        <time>2014-01-21T10:15:44.000Z</time>
      </trkpt>
      <trkpt lat="48.68796" lon="1.74952">
        <ele>156</ele>
        <time>2014-01-21T10:15:50.000Z</time>
      </trkpt>
      <trkpt lat="48.68793" lon="1.74949">
        <ele>156</ele>
        <time>2014-01-21T10:15:52.000Z</time>
      </trkpt>
      <trkpt lat="48.68787" lon="1.74944">
        <ele>156.19999694824</ele>
        <time>2014-01-21T10:15:59.000Z</time>
      </trkpt>
      <trkpt lat="48.68786" lon="1.7494">
        <ele>156.19999694824</ele>
        <time>2014-01-21T10:16:01.000Z</time>
      </trkpt>
      <trkpt lat="48.68782" lon="1.74931">
        <ele>156.39999389648</ele>
        <time>2014-01-21T10:16:07.000Z</time>
      </trkpt>
      <trkpt lat="48.68778" lon="1.7492">
        <ele>156.60000610352</ele>
        <time>2014-01-21T10:16:14.000Z</time>
      </trkpt>
      <trkpt lat="48.68777" lon="1.74918">
        <ele>156.60000610352</ele>
        <time>2014-01-21T10:16:15.000Z</time>
      </trkpt>
      <trkpt lat="48.68774" lon="1.74912">
        <ele>156.80000305176</ele>
        <time>2014-01-21T10:16:20.000Z</time>
      </trkpt>
      <trkpt lat="48.68769" lon="1.74905">
        <ele>157</ele>
        <time>2014-01-21T10:16:26.000Z</time>
      </trkpt>
      <trkpt lat="48.68763" lon="1.74894">
        <ele>157.39999389648</ele>
        <time>2014-01-21T10:16:33.000Z</time>
      </trkpt>
      <trkpt lat="48.6876" lon="1.74888">
        <ele>157.39999389648</ele>
        <time>2014-01-21T10:16:37.000Z</time>
      </trkpt>
      <trkpt lat="48.68753" lon="1.74881">
        <ele>157.80000305176</ele>
        <time>2014-01-21T10:16:44.000Z</time>
      </trkpt>
      <trkpt lat="48.6875" lon="1.74871">
        <ele>158.19999694824</ele>
        <time>2014-01-21T10:16:50.000Z</time>
      </trkpt>
      <trkpt lat="48.68748" lon="1.74859">
        <ele>158.60000610352</ele>
        <time>2014-01-21T10:16:55.000Z</time>
      </trkpt>
      <trkpt lat="48.68743" lon="1.74845">
        <ele>159.39999389648</ele>
        <time>2014-01-21T10:17:01.000Z</time>
      </trkpt>
      <trkpt lat="48.68737" lon="1.74837">
        <ele>160</ele>
        <time>2014-01-21T10:17:07.000Z</time>
      </trkpt>
      <trkpt lat="48.68731" lon="1.74828">
        <ele>160.80000305176</ele>
        <time>2014-01-21T10:17:14.000Z</time>
      </trkpt>
      <trkpt lat="48.6873" lon="1.74826">
        <ele>161</ele>
        <time>2014-01-21T10:17:15.000Z</time>
      </trkpt>
      <trkpt lat="48.68724" lon="1.74816">
        <ele>161.80000305176</ele>
        <time>2014-01-21T10:17:21.000Z</time>
      </trkpt>
      <trkpt lat="48.68723" lon="1.74814">
        <ele>162</ele>
        <time>2014-01-21T10:17:22.000Z</time>
      </trkpt>
      <trkpt lat="48.68722" lon="1.74808">
        <ele>162.39999389648</ele>
        <time>2014-01-21T10:17:25.000Z</time>
      </trkpt>
      <trkpt lat="48.68719" lon="1.74799">
        <ele>163</ele>
        <time>2014-01-21T10:17:29.000Z</time>
      </trkpt>
      <trkpt lat="48.68719" lon="1.74793">
        <ele>163.19999694824</ele>
        <time>2014-01-21T10:17:32.000Z</time>
      </trkpt>
      <trkpt lat="48.68712" lon="1.74783">
        <ele>164.19999694824</ele>
        <time>2014-01-21T10:17:39.000Z</time>
      </trkpt>
      <trkpt lat="48.6871" lon="1.74776">
        <ele>164.80000305176</ele>
        <time>2014-01-21T10:17:43.000Z</time>
      </trkpt>
      <trkpt lat="48.68706" lon="1.74765">
        <ele>165.60000610352</ele>
        <time>2014-01-21T10:17:49.000Z</time>
      </trkpt>
      <trkpt lat="48.68699" lon="1.74756">
        <ele>166.60000610352</ele>
        <time>2014-01-21T10:17:55.000Z</time>
      </trkpt>
      <trkpt lat="48.68693" lon="1.7475">
        <ele>167.39999389648</ele>
        <time>2014-01-21T10:18:00.000Z</time>
      </trkpt>
      <trkpt lat="48.6869" lon="1.74742">
        <ele>167.80000305176</ele>
        <time>2014-01-21T10:18:04.000Z</time>
      </trkpt>
      <trkpt lat="48.68683" lon="1.74727">
        <ele>168.60000610352</ele>
        <time>2014-01-21T10:18:12.000Z</time>
      </trkpt>
      <trkpt lat="48.68679" lon="1.74722">
        <ele>169</ele>
        <time>2014-01-21T10:18:16.000Z</time>
      </trkpt>
      <trkpt lat="48.68676" lon="1.74713">
        <ele>169.39999389648</ele>
        <time>2014-01-21T10:18:22.000Z</time>
      </trkpt>
      <trkpt lat="48.68675" lon="1.74709">
        <ele>169.39999389648</ele>
        <time>2014-01-21T10:18:24.000Z</time>
      </trkpt>
      <trkpt lat="48.6867" lon="1.747">
        <ele>169.80000305176</ele>
        <time>2014-01-21T10:18:29.000Z</time>
      </trkpt>
      <trkpt lat="48.68667" lon="1.74694">
        <ele>170</ele>
        <time>2014-01-21T10:18:33.000Z</time>
      </trkpt>
      <trkpt lat="48.68664" lon="1.74686">
        <ele>170</ele>
        <time>2014-01-21T10:18:38.000Z</time>
      </trkpt>
      <trkpt lat="48.6866" lon="1.74678">
        <ele>170</ele>
        <time>2014-01-21T10:18:43.000Z</time>
      </trkpt>
      <trkpt lat="48.68656" lon="1.74665">
        <ele>169.80000305176</ele>
        <time>2014-01-21T10:18:50.000Z</time>
      </trkpt>
      <trkpt lat="48.68653" lon="1.74661">
        <ele>169.80000305176</ele>
        <time>2014-01-21T10:18:53.000Z</time>
      </trkpt>
      <trkpt lat="48.6865" lon="1.74654">
        <ele>169.80000305176</ele>
        <time>2014-01-21T10:18:57.000Z</time>
      </trkpt>
      <trkpt lat="48.68643" lon="1.74639">
        <ele>169.60000610352</ele>
        <time>2014-01-21T10:19:05.000Z</time>
      </trkpt>
      <trkpt lat="48.68638" lon="1.74629">
        <ele>169.39999389648</ele>
        <time>2014-01-21T10:19:12.000Z</time>
      </trkpt>
      <trkpt lat="48.68634" lon="1.74621">
        <ele>169.19999694824</ele>
        <time>2014-01-21T10:19:17.000Z</time>
      </trkpt>
      <trkpt lat="48.68631" lon="1.74614">
        <ele>169</ele>
        <time>2014-01-21T10:19:22.000Z</time>
      </trkpt>
      <trkpt lat="48.68629" lon="1.74612">
        <ele>169</ele>
        <time>2014-01-21T10:19:25.000Z</time>
      </trkpt>
      <trkpt lat="48.68627" lon="1.74613">
        <ele>169</ele>
        <time>2014-01-21T10:19:32.000Z</time>
      </trkpt>
      <trkpt lat="48.68624" lon="1.74608">
        <ele>168.80000305176</ele>
        <time>2014-01-21T10:19:45.000Z</time>
      </trkpt>
      <trkpt lat="48.68622" lon="1.74605">
        <ele>168.60000610352</ele>
        <time>2014-01-21T10:19:46.000Z</time>
      </trkpt>
      <trkpt lat="48.68618" lon="1.74591">
        <ele>168.39999389648</ele>
        <time>2014-01-21T10:19:53.000Z</time>
      </trkpt>
      <trkpt lat="48.68613" lon="1.74581">
        <ele>168</ele>
        <time>2014-01-21T10:19:59.000Z</time>
      </trkpt>
      <trkpt lat="48.6861" lon="1.74573">
        <ele>167.39999389648</ele>
        <time>2014-01-21T10:20:03.000Z</time>
      </trkpt>
      <trkpt lat="48.68605" lon="1.74564">
        <ele>166.80000305176</ele>
        <time>2014-01-21T10:20:09.000Z</time>
      </trkpt>
      <trkpt lat="48.68601" lon="1.74553">
        <ele>166</ele>
        <time>2014-01-21T10:20:15.000Z</time>
      </trkpt>
      <trkpt lat="48.686" lon="1.7455">
        <ele>165.80000305176</ele>
        <time>2014-01-21T10:20:16.000Z</time>
      </trkpt>
      <trkpt lat="48.68594" lon="1.74537">
        <ele>164.80000305176</ele>
        <time>2014-01-21T10:20:23.000Z</time>
      </trkpt>
      <trkpt lat="48.68587" lon="1.7452">
        <ele>163.39999389648</ele>
        <time>2014-01-21T10:20:31.000Z</time>
      </trkpt>
      <trkpt lat="48.68582" lon="1.74509">
        <ele>162.39999389648</ele>
        <time>2014-01-21T10:20:37.000Z</time>
      </trkpt>
      <trkpt lat="48.68577" lon="1.74498">
        <ele>161.39999389648</ele>
        <time>2014-01-21T10:20:43.000Z</time>
      </trkpt>
      <trkpt lat="48.68574" lon="1.74491">
        <ele>160.60000610352</ele>
        <time>2014-01-21T10:20:47.000Z</time>
      </trkpt>
      <trkpt lat="48.6857" lon="1.74485">
        <ele>159.80000305176</ele>
        <time>2014-01-21T10:20:51.000Z</time>
      </trkpt>
      <trkpt lat="48.68564" lon="1.74474">
        <ele>158.60000610352</ele>
        <time>2014-01-21T10:20:58.000Z</time>
      </trkpt>
      <trkpt lat="48.68566" lon="1.74462">
        <ele>157.80000305176</ele>
        <time>2014-01-21T10:21:03.000Z</time>
      </trkpt>
      <trkpt lat="48.68571" lon="1.74455">
        <ele>157.80000305176</ele>
        <time>2014-01-21T10:21:08.000Z</time>
      </trkpt>
      <trkpt lat="48.68572" lon="1.74454">
        <ele>157.80000305176</ele>
        <time>2014-01-21T10:21:09.000Z</time>
      </trkpt>
      <trkpt lat="48.68579" lon="1.74439">
        <ele>157.19999694824</ele>
        <time>2014-01-21T10:21:16.000Z</time>
      </trkpt>
      <trkpt lat="48.68586" lon="1.74425">
        <ele>156.80000305176</ele>
        <time>2014-01-21T10:21:22.000Z</time>
      </trkpt>
      <trkpt lat="48.68588" lon="1.7442">
        <ele>156.80000305176</ele>
        <time>2014-01-21T10:21:25.000Z</time>
      </trkpt>
      <trkpt lat="48.68592" lon="1.74414">
        <ele>157</ele>
        <time>2014-01-21T10:21:29.000Z</time>
      </trkpt>
      <trkpt lat="48.68595" lon="1.74409">
        <ele>157.19999694824</ele>
        <time>2014-01-21T10:21:32.000Z</time>
      </trkpt>
      <trkpt lat="48.68604" lon="1.74394">
        <ele>157.80000305176</ele>
        <time>2014-01-21T10:21:41.000Z</time>
      </trkpt>
      <trkpt lat="48.68605" lon="1.74393">
        <ele>157.80000305176</ele>
        <time>2014-01-21T10:21:42.000Z</time>
      </trkpt>
      <trkpt lat="48.68612" lon="1.74383">
        <ele>158</ele>
        <time>2014-01-21T10:21:49.000Z</time>
      </trkpt>
      <trkpt lat="48.68613" lon="1.7438">
        <ele>158.19999694824</ele>
        <time>2014-01-21T10:21:51.000Z</time>
      </trkpt>
      <trkpt lat="48.68615" lon="1.74376">
        <ele>158.19999694824</ele>
        <time>2014-01-21T10:21:53.000Z</time>
      </trkpt>
      <trkpt lat="48.68619" lon="1.7437">
        <ele>158.39999389648</ele>
        <time>2014-01-21T10:21:57.000Z</time>
      </trkpt>
      <trkpt lat="48.68622" lon="1.74366">
        <ele>158.39999389648</ele>
        <time>2014-01-21T10:22:00.000Z</time>
      </trkpt>
      <trkpt lat="48.68625" lon="1.74361">
        <ele>158.39999389648</ele>
        <time>2014-01-21T10:22:03.000Z</time>
      </trkpt>
      <trkpt lat="48.68634" lon="1.74347">
        <ele>158.60000610352</ele>
        <time>2014-01-21T10:22:11.000Z</time>
      </trkpt>
      <trkpt lat="48.68639" lon="1.74338">
        <ele>158.60000610352</ele>
        <time>2014-01-21T10:22:16.000Z</time>
      </trkpt>
      <trkpt lat="48.6864" lon="1.74336">
        <ele>158.60000610352</ele>
        <time>2014-01-21T10:22:17.000Z</time>
      </trkpt>
      <trkpt lat="48.68644" lon="1.74329">
        <ele>158.60000610352</ele>
        <time>2014-01-21T10:22:21.000Z</time>
      </trkpt>
      <trkpt lat="48.68646" lon="1.74326">
        <ele>158.60000610352</ele>
        <time>2014-01-21T10:22:23.000Z</time>
      </trkpt>
      <trkpt lat="48.68652" lon="1.74315">
        <ele>158.80000305176</ele>
        <time>2014-01-21T10:22:30.000Z</time>
      </trkpt>
      <trkpt lat="48.68654" lon="1.74312">
        <ele>158.80000305176</ele>
        <time>2014-01-21T10:22:32.000Z</time>
      </trkpt>
      <trkpt lat="48.68659" lon="1.74305">
        <ele>158.80000305176</ele>
        <time>2014-01-21T10:22:36.000Z</time>
      </trkpt>
      <trkpt lat="48.68668" lon="1.743">
        <ele>158.80000305176</ele>
        <time>2014-01-21T10:22:42.000Z</time>
      </trkpt>
      <trkpt lat="48.68671" lon="1.74291">
        <ele>158.60000610352</ele>
        <time>2014-01-21T10:22:47.000Z</time>
      </trkpt>
      <trkpt lat="48.68677" lon="1.74284">
        <ele>158.60000610352</ele>
        <time>2014-01-21T10:22:53.000Z</time>
      </trkpt>
      <trkpt lat="48.6868" lon="1.74274">
        <ele>158.19999694824</ele>
        <time>2014-01-21T10:23:00.000Z</time>
      </trkpt>
      <trkpt lat="48.68681" lon="1.74269">
        <ele>158</ele>
        <time>2014-01-21T10:23:05.000Z</time>
      </trkpt>
      <trkpt lat="48.68685" lon="1.74265">
        <ele>157.80000305176</ele>
        <time>2014-01-21T10:23:10.000Z</time>
      </trkpt>
      <trkpt lat="48.68688" lon="1.74263">
        <ele>157.80000305176</ele>
        <time>2014-01-21T10:23:13.000Z</time>
      </trkpt>
      <trkpt lat="48.68692" lon="1.74258">
        <ele>157.39999389648</ele>
        <time>2014-01-21T10:23:17.000Z</time>
      </trkpt>
      <trkpt lat="48.68699" lon="1.74248">
        <ele>157</ele>
        <time>2014-01-21T10:23:23.000Z</time>
      </trkpt>
      <trkpt lat="48.6871" lon="1.74237">
        <ele>157</ele>
        <time>2014-01-21T10:23:30.000Z</time>
      </trkpt>
      <trkpt lat="48.68717" lon="1.74237">
        <ele>156.80000305176</ele>
        <time>2014-01-21T10:23:35.000Z</time>
      </trkpt>
      <trkpt lat="48.68727" lon="1.74236">
        <ele>156.80000305176</ele>
        <time>2014-01-21T10:23:41.000Z</time>
      </trkpt>
      <trkpt lat="48.68736" lon="1.74234">
        <ele>156.80000305176</ele>
        <time>2014-01-21T10:23:46.000Z</time>
      </trkpt>
      <trkpt lat="48.68747" lon="1.74231">
        <ele>156.60000610352</ele>
        <time>2014-01-21T10:23:53.000Z</time>
      </trkpt>
      <trkpt lat="48.68759" lon="1.7423">
        <ele>156.39999389648</ele>
        <time>2014-01-21T10:23:59.000Z</time>
      </trkpt>
      <trkpt lat="48.6877" lon="1.74228">
        <ele>156</ele>
        <time>2014-01-21T10:24:04.000Z</time>
      </trkpt>
      <trkpt lat="48.68775" lon="1.74228">
        <ele>156</ele>
        <time>2014-01-21T10:24:06.000Z</time>
      </trkpt>
      <trkpt lat="48.68784" lon="1.74228">
        <ele>155.80000305176</ele>
        <time>2014-01-21T10:24:12.000Z</time>
      </trkpt>
      <trkpt lat="48.68789" lon="1.74229">
        <ele>155.60000610352</ele>
        <time>2014-01-21T10:24:16.000Z</time>
      </trkpt>
      <trkpt lat="48.68798" lon="1.7423">
        <ele>155.39999389648</ele>
        <time>2014-01-21T10:24:21.000Z</time>
      </trkpt>
      <trkpt lat="48.68804" lon="1.74234">
        <ele>155.19999694824</ele>
        <time>2014-01-21T10:24:25.000Z</time>
      </trkpt>
      <trkpt lat="48.68813" lon="1.7424">
        <ele>155</ele>
        <time>2014-01-21T10:24:31.000Z</time>
      </trkpt>
      <trkpt lat="48.68817" lon="1.74244">
        <ele>154.80000305176</ele>
        <time>2014-01-21T10:24:34.000Z</time>
      </trkpt>
      <trkpt lat="48.68825" lon="1.74258">
        <ele>154.39999389648</ele>
        <time>2014-01-21T10:24:42.000Z</time>
      </trkpt>
      <trkpt lat="48.6883" lon="1.74274">
        <ele>154.60000610352</ele>
        <time>2014-01-21T10:24:47.000Z</time>
      </trkpt>
      <trkpt lat="48.6883" lon="1.74284">
        <ele>154.60000610352</ele>
        <time>2014-01-21T10:24:51.000Z</time>
      </trkpt>
      <trkpt lat="48.68829" lon="1.7429">
        <ele>154.80000305176</ele>
        <time>2014-01-21T10:24:53.000Z</time>
      </trkpt>
      <trkpt lat="48.6883" lon="1.74303">
        <ele>155</ele>
        <time>2014-01-21T10:24:58.000Z</time>
      </trkpt>
      <trkpt lat="48.6883" lon="1.74317">
        <ele>155.19999694824</ele>
        <time>2014-01-21T10:25:04.000Z</time>
      </trkpt>
      <trkpt lat="48.68831" lon="1.74337">
        <ele>155.39999389648</ele>
        <time>2014-01-21T10:25:12.000Z</time>
      </trkpt>
      <trkpt lat="48.68834" lon="1.7435">
        <ele>155.60000610352</ele>
        <time>2014-01-21T10:25:18.000Z</time>
      </trkpt>
      <trkpt lat="48.68835" lon="1.74364">
        <ele>156.19999694824</ele>
        <time>2014-01-21T10:25:24.000Z</time>
      </trkpt>
      <trkpt lat="48.68837" lon="1.74375">
        <ele>156.60000610352</ele>
        <time>2014-01-21T10:25:29.000Z</time>
      </trkpt>
      <trkpt lat="48.68836" lon="1.74392">
        <ele>157.19999694824</ele>
        <time>2014-01-21T10:25:36.000Z</time>
      </trkpt>
      <trkpt lat="48.68836" lon="1.74396">
        <ele>157.19999694824</ele>
        <time>2014-01-21T10:25:38.000Z</time>
      </trkpt>
      <trkpt lat="48.68836" lon="1.74409">
        <ele>157.80000305176</ele>
        <time>2014-01-21T10:25:44.000Z</time>
      </trkpt>
      <trkpt lat="48.68837" lon="1.74422">
        <ele>157.80000305176</ele>
        <time>2014-01-21T10:25:50.000Z</time>
      </trkpt>
      <trkpt lat="48.68836" lon="1.74433">
        <ele>157.60000610352</ele>
        <time>2014-01-21T10:25:55.000Z</time>
      </trkpt>
      <trkpt lat="48.68835" lon="1.74438">
        <ele>157.39999389648</ele>
        <time>2014-01-21T10:25:58.000Z</time>
      </trkpt>
      <trkpt lat="48.68838" lon="1.74449">
        <ele>157.19999694824</ele>
        <time>2014-01-21T10:26:04.000Z</time>
      </trkpt>
      <trkpt lat="48.68839" lon="1.74461">
        <ele>157</ele>
        <time>2014-01-21T10:26:10.000Z</time>
      </trkpt>
      <trkpt lat="48.68839" lon="1.74474">
        <ele>156.80000305176</ele>
        <time>2014-01-21T10:26:15.000Z</time>
      </trkpt>
      <trkpt lat="48.6884" lon="1.74488">
        <ele>156.39999389648</ele>
        <time>2014-01-21T10:26:19.000Z</time>
      </trkpt>
      <trkpt lat="48.68839" lon="1.74506">
        <ele>156.19999694824</ele>
        <time>2014-01-21T10:26:26.000Z</time>
      </trkpt>
      <trkpt lat="48.68838" lon="1.74526">
        <ele>156.19999694824</ele>
        <time>2014-01-21T10:26:34.000Z</time>
      </trkpt>
      <trkpt lat="48.68837" lon="1.74538">
        <ele>156</ele>
        <time>2014-01-21T10:26:39.000Z</time>
      </trkpt>
      <trkpt lat="48.68838" lon="1.74553">
        <ele>156.19999694824</ele>
        <time>2014-01-21T10:26:44.000Z</time>
      </trkpt>
      <trkpt lat="48.68839" lon="1.74567">
        <ele>156.19999694824</ele>
        <time>2014-01-21T10:26:50.000Z</time>
      </trkpt>
      <trkpt lat="48.68838" lon="1.74587">
        <ele>156.19999694824</ele>
        <time>2014-01-21T10:26:59.000Z</time>
      </trkpt>
      <trkpt lat="48.68838" lon="1.74601">
        <ele>156.39999389648</ele>
        <time>2014-01-21T10:27:05.000Z</time>
      </trkpt>
      <trkpt lat="48.6884" lon="1.74614">
        <ele>156.60000610352</ele>
        <time>2014-01-21T10:27:11.000Z</time>
      </trkpt>
      <trkpt lat="48.6884" lon="1.74621">
        <ele>156.60000610352</ele>
        <time>2014-01-21T10:27:14.000Z</time>
      </trkpt>
      <trkpt lat="48.68841" lon="1.74636">
        <ele>157</ele>
        <time>2014-01-21T10:27:20.000Z</time>
      </trkpt>
      <trkpt lat="48.68843" lon="1.74653">
        <ele>157.19999694824</ele>
        <time>2014-01-21T10:27:28.000Z</time>
      </trkpt>
      <trkpt lat="48.68844" lon="1.74671">
        <ele>157.39999389648</ele>
        <time>2014-01-21T10:27:34.000Z</time>
      </trkpt>
      <trkpt lat="48.68847" lon="1.74696">
        <ele>157.39999389648</ele>
        <time>2014-01-21T10:27:43.000Z</time>
      </trkpt>
      <trkpt lat="48.68849" lon="1.74712">
        <ele>157.39999389648</ele>
        <time>2014-01-21T10:27:50.000Z</time>
      </trkpt>
      <trkpt lat="48.68852" lon="1.74728">
        <ele>157.39999389648</ele>
        <time>2014-01-21T10:27:57.000Z</time>
      </trkpt>
      <trkpt lat="48.68855" lon="1.74742">
        <ele>157.60000610352</ele>
        <time>2014-01-21T10:28:03.000Z</time>
      </trkpt>
      <trkpt lat="48.68856" lon="1.74744">
        <ele>157.60000610352</ele>
        <time>2014-01-21T10:28:04.000Z</time>
      </trkpt>
      <trkpt lat="48.68859" lon="1.74762">
        <ele>157.80000305176</ele>
        <time>2014-01-21T10:28:12.000Z</time>
      </trkpt>
      <trkpt lat="48.6886" lon="1.74766">
        <ele>157.80000305176</ele>
        <time>2014-01-21T10:28:14.000Z</time>
      </trkpt>
      <trkpt lat="48.68865" lon="1.74781">
        <ele>157.80000305176</ele>
        <time>2014-01-21T10:28:21.000Z</time>
      </trkpt>
      <trkpt lat="48.68866" lon="1.74795">
        <ele>157.80000305176</ele>
        <time>2014-01-21T10:28:27.000Z</time>
      </trkpt>
      <trkpt lat="48.68868" lon="1.74801">
        <ele>157.80000305176</ele>
        <time>2014-01-21T10:28:30.000Z</time>
      </trkpt>
      <trkpt lat="48.68871" lon="1.74817">
        <ele>157.60000610352</ele>
        <time>2014-01-21T10:28:37.000Z</time>
      </trkpt>
      <trkpt lat="48.68874" lon="1.74836">
        <ele>157.39999389648</ele>
        <time>2014-01-21T10:28:45.000Z</time>
      </trkpt>
      <trkpt lat="48.68874" lon="1.74852">
        <ele>157.19999694824</ele>
        <time>2014-01-21T10:28:51.000Z</time>
      </trkpt>
      <trkpt lat="48.68877" lon="1.7487">
        <ele>157.19999694824</ele>
        <time>2014-01-21T10:28:57.000Z</time>
      </trkpt>
      <trkpt lat="48.6888" lon="1.74887">
        <ele>157</ele>
        <time>2014-01-21T10:29:03.000Z</time>
      </trkpt>
      <trkpt lat="48.68884" lon="1.74907">
        <ele>156.80000305176</ele>
        <time>2014-01-21T10:29:10.000Z</time>
      </trkpt>
      <trkpt lat="48.68887" lon="1.74929">
        <ele>156.19999694824</ele>
        <time>2014-01-21T10:29:18.000Z</time>
      </trkpt>
      <trkpt lat="48.68889" lon="1.74943">
        <ele>156</ele>
        <time>2014-01-21T10:29:24.000Z</time>
      </trkpt>
      <trkpt lat="48.68894" lon="1.74966">
        <ele>155.19999694824</ele>
        <time>2014-01-21T10:29:34.000Z</time>
      </trkpt>
      <trkpt lat="48.68897" lon="1.74984">
        <ele>154.80000305176</ele>
        <time>2014-01-21T10:29:42.000Z</time>
      </trkpt>
      <trkpt lat="48.689" lon="1.75002">
        <ele>154.19999694824</ele>
        <time>2014-01-21T10:29:50.000Z</time>
      </trkpt>
      <trkpt lat="48.68903" lon="1.7502">
        <ele>154.19999694824</ele>
        <time>2014-01-21T10:29:58.000Z</time>
      </trkpt>
      <trkpt lat="48.68905" lon="1.75036">
        <ele>154.19999694824</ele>
        <time>2014-01-21T10:30:05.000Z</time>
      </trkpt>
      <trkpt lat="48.68908" lon="1.75054">
        <ele>154.19999694824</ele>
        <time>2014-01-21T10:30:13.000Z</time>
      </trkpt>
      <trkpt lat="48.68911" lon="1.75074">
        <ele>154</ele>
        <time>2014-01-21T10:30:22.000Z</time>
      </trkpt>
      <trkpt lat="48.68915" lon="1.75097">
        <ele>153.80000305176</ele>
        <time>2014-01-21T10:30:32.000Z</time>
      </trkpt>
      <trkpt lat="48.68918" lon="1.75117">
        <ele>153.60000610352</ele>
        <time>2014-01-21T10:30:41.000Z</time>
      </trkpt>
      <trkpt lat="48.68924" lon="1.75135">
        <ele>153.39999389648</ele>
        <time>2014-01-21T10:30:50.000Z</time>
      </trkpt>
      <trkpt lat="48.68926" lon="1.75137">
        <ele>153.39999389648</ele>
        <time>2014-01-21T10:30:52.000Z</time>
      </trkpt>
      <trkpt lat="48.68926" lon="1.75149">
        <ele>153.19999694824</ele>
        <time>2014-01-21T10:30:58.000Z</time>
      </trkpt>
      <trkpt lat="48.68927" lon="1.75156">
        <ele>153.19999694824</ele>
        <time>2014-01-21T10:31:01.000Z</time>
      </trkpt>
      <trkpt lat="48.6893" lon="1.75177">
        <ele>153.19999694824</ele>
        <time>2014-01-21T10:31:10.000Z</time>
      </trkpt>
      <trkpt lat="48.6893" lon="1.75191">
        <ele>153.19999694824</ele>
        <time>2014-01-21T10:31:15.000Z</time>
      </trkpt>
      <trkpt lat="48.68933" lon="1.75209">
        <ele>153.19999694824</ele>
        <time>2014-01-21T10:31:23.000Z</time>
      </trkpt>
      <trkpt lat="48.68937" lon="1.75221">
        <ele>153.39999389648</ele>
        <time>2014-01-21T10:31:29.000Z</time>
      </trkpt>
      <trkpt lat="48.68941" lon="1.75234">
        <ele>153.60000610352</ele>
        <time>2014-01-21T10:31:35.000Z</time>
      </trkpt>
      <trkpt lat="48.68946" lon="1.7525">
        <ele>153.60000610352</ele>
        <time>2014-01-21T10:31:43.000Z</time>
      </trkpt>
      <trkpt lat="48.68954" lon="1.75266">
        <ele>154.19999694824</ele>
        <time>2014-01-21T10:31:52.000Z</time>
      </trkpt>
      <trkpt lat="48.68958" lon="1.75283">
        <ele>154.60000610352</ele>
        <time>2014-01-21T10:31:59.000Z</time>
      </trkpt>
      <trkpt lat="48.68958" lon="1.7529">
        <ele>154.80000305176</ele>
        <time>2014-01-21T10:32:02.000Z</time>
      </trkpt>
      <trkpt lat="48.68955" lon="1.75298">
        <ele>154.80000305176</ele>
        <time>2014-01-21T10:32:07.000Z</time>
      </trkpt>
      <trkpt lat="48.68954" lon="1.75301">
        <ele>154.80000305176</ele>
        <time>2014-01-21T10:32:11.000Z</time>
      </trkpt>
      <trkpt lat="48.6894" lon="1.75297">
        <ele>154.19999694824</ele>
        <time>2014-01-21T10:32:38.000Z</time>
      </trkpt>
      <trkpt lat="48.68921" lon="1.75308">
        <ele>153.80000305176</ele>
        <time>2014-01-21T10:32:43.000Z</time>
      </trkpt>
      <trkpt lat="48.68904" lon="1.75319">
        <ele>154</ele>
        <time>2014-01-21T10:32:48.000Z</time>
      </trkpt>
      <trkpt lat="48.68883" lon="1.7533">
        <ele>154.39999389648</ele>
        <time>2014-01-21T10:32:54.000Z</time>
      </trkpt>
      <trkpt lat="48.6886" lon="1.75348">
        <ele>155.19999694824</ele>
        <time>2014-01-21T10:33:01.000Z</time>
      </trkpt>
      <trkpt lat="48.68849" lon="1.75355">
        <ele>155.60000610352</ele>
        <time>2014-01-21T10:33:06.000Z</time>
      </trkpt>
      <trkpt lat="48.68832" lon="1.75364">
        <ele>156</ele>
        <time>2014-01-21T10:33:12.000Z</time>
      </trkpt>
      <trkpt lat="48.6881" lon="1.75375">
        <ele>156.39999389648</ele>
        <time>2014-01-21T10:33:19.000Z</time>
      </trkpt>
      <trkpt lat="48.68795" lon="1.75384">
        <ele>156.60000610352</ele>
        <time>2014-01-21T10:33:24.000Z</time>
      </trkpt>
      <trkpt lat="48.68769" lon="1.75399">
        <ele>156.80000305176</ele>
        <time>2014-01-21T10:33:32.000Z</time>
      </trkpt>
      <trkpt lat="48.68749" lon="1.75411">
        <ele>156.80000305176</ele>
        <time>2014-01-21T10:33:38.000Z</time>
      </trkpt>
      <trkpt lat="48.68732" lon="1.75425">
        <ele>157.19999694824</ele>
        <time>2014-01-21T10:33:44.000Z</time>
      </trkpt>
      <trkpt lat="48.68716" lon="1.75432">
        <ele>157.39999389648</ele>
        <time>2014-01-21T10:33:49.000Z</time>
      </trkpt>
      <trkpt lat="48.68694" lon="1.75443">
        <ele>157.80000305176</ele>
        <time>2014-01-21T10:33:56.000Z</time>
      </trkpt>
      <trkpt lat="48.68677" lon="1.75453">
        <ele>158.19999694824</ele>
        <time>2014-01-21T10:34:01.000Z</time>
      </trkpt>
      <trkpt lat="48.68658" lon="1.75464">
        <ele>158.80000305176</ele>
        <time>2014-01-21T10:34:06.000Z</time>
      </trkpt>
      <trkpt lat="48.68642" lon="1.75472">
        <ele>159</ele>
        <time>2014-01-21T10:34:10.000Z</time>
      </trkpt>
      <trkpt lat="48.68618" lon="1.75485">
        <ele>159.19999694824</ele>
        <time>2014-01-21T10:34:15.000Z</time>
      </trkpt>
      <trkpt lat="48.6858" lon="1.75508">
        <ele>159</ele>
        <time>2014-01-21T10:34:22.000Z</time>
      </trkpt>
      <trkpt lat="48.6857" lon="1.75514">
        <ele>158.80000305176</ele>
        <time>2014-01-21T10:34:24.000Z</time>
      </trkpt>
      <trkpt lat="48.6854" lon="1.75528">
        <ele>158.39999389648</ele>
        <time>2014-01-21T10:34:30.000Z</time>
      </trkpt>
      <trkpt lat="48.68523" lon="1.75536">
        <ele>157.80000305176</ele>
        <time>2014-01-21T10:34:34.000Z</time>
      </trkpt>
      <trkpt lat="48.68511" lon="1.75542">
        <ele>157.19999694824</ele>
        <time>2014-01-21T10:34:38.000Z</time>
      </trkpt>
      <trkpt lat="48.685" lon="1.75547">
        <ele>156.80000305176</ele>
        <time>2014-01-21T10:34:45.000Z</time>
      </trkpt>
      <trkpt lat="48.68495" lon="1.7555">
        <ele>156.60000610352</ele>
        <time>2014-01-21T10:34:51.000Z</time>
      </trkpt>
      <trkpt lat="48.6849" lon="1.75552">
        <ele>156.60000610352</ele>
        <time>2014-01-21T10:34:55.000Z</time>
      </trkpt>
      <trkpt lat="48.68476" lon="1.75561">
        <ele>156.19999694824</ele>
        <time>2014-01-21T10:35:04.000Z</time>
      </trkpt>
      <trkpt lat="48.68466" lon="1.75568">
        <ele>155.80000305176</ele>
        <time>2014-01-21T10:35:12.000Z</time>
      </trkpt>
      <trkpt lat="48.68455" lon="1.75574">
        <ele>155.60000610352</ele>
        <time>2014-01-21T10:35:20.000Z</time>
      </trkpt>
      <trkpt lat="48.6845" lon="1.75575">
        <ele>155.60000610352</ele>
        <time>2014-01-21T10:35:25.000Z</time>
      </trkpt>
      <trkpt lat="48.68442" lon="1.75582">
        <ele>155</ele>
        <time>2014-01-21T10:35:31.000Z</time>
      </trkpt>
      <trkpt lat="48.68432" lon="1.75588">
        <ele>155</ele>
        <time>2014-01-21T10:35:39.000Z</time>
      </trkpt>
      <trkpt lat="48.68423" lon="1.75592">
        <ele>155</ele>
        <time>2014-01-21T10:35:46.000Z</time>
      </trkpt>
      <trkpt lat="48.68416" lon="1.75596">
        <ele>154.80000305176</ele>
        <time>2014-01-21T10:35:52.000Z</time>
      </trkpt>
      <trkpt lat="48.68409" lon="1.75597">
        <ele>154.60000610352</ele>
        <time>2014-01-21T10:35:57.000Z</time>
      </trkpt>
      <trkpt lat="48.68398" lon="1.75602">
        <ele>154.19999694824</ele>
        <time>2014-01-21T10:36:05.000Z</time>
      </trkpt>
      <trkpt lat="48.68388" lon="1.75606">
        <ele>153.80000305176</ele>
        <time>2014-01-21T10:36:13.000Z</time>
      </trkpt>
      <trkpt lat="48.68385" lon="1.75607">
        <ele>153.60000610352</ele>
        <time>2014-01-21T10:36:15.000Z</time>
      </trkpt>
      <trkpt lat="48.68378" lon="1.75612">
        <ele>153.39999389648</ele>
        <time>2014-01-21T10:36:19.000Z</time>
      </trkpt>
      <trkpt lat="48.6837" lon="1.75616">
        <ele>153.19999694824</ele>
        <time>2014-01-21T10:36:25.000Z</time>
      </trkpt>
      <trkpt lat="48.68365" lon="1.75619">
        <ele>153</ele>
        <time>2014-01-21T10:36:29.000Z</time>
      </trkpt>
      <trkpt lat="48.68363" lon="1.75619">
        <ele>153</ele>
        <time>2014-01-21T10:36:31.000Z</time>
      </trkpt>
      <trkpt lat="48.6836" lon="1.75623">
        <ele>152.80000305176</ele>
        <time>2014-01-21T10:36:33.000Z</time>
      </trkpt>
      <trkpt lat="48.68346" lon="1.75632">
        <ele>152.39999389648</ele>
        <time>2014-01-21T10:36:42.000Z</time>
      </trkpt>
      <trkpt lat="48.68342" lon="1.75636">
        <ele>152.19999694824</ele>
        <time>2014-01-21T10:36:45.000Z</time>
      </trkpt>
      <trkpt lat="48.68336" lon="1.75639">
        <ele>152</ele>
        <time>2014-01-21T10:36:49.000Z</time>
      </trkpt>
      <trkpt lat="48.68322" lon="1.75648">
        <ele>152.19999694824</ele>
        <time>2014-01-21T10:36:59.000Z</time>
      </trkpt>
      <trkpt lat="48.68318" lon="1.75651">
        <ele>152.19999694824</ele>
        <time>2014-01-21T10:37:02.000Z</time>
      </trkpt>
      <trkpt lat="48.68314" lon="1.75651">
        <ele>152.19999694824</ele>
        <time>2014-01-21T10:37:06.000Z</time>
      </trkpt>
      <trkpt lat="48.68303" lon="1.7565">
        <ele>152.39999389648</ele>
        <time>2014-01-21T10:37:14.000Z</time>
      </trkpt>
      <trkpt lat="48.68294" lon="1.75651">
        <ele>152.39999389648</ele>
        <time>2014-01-21T10:37:21.000Z</time>
      </trkpt>
      <trkpt lat="48.68285" lon="1.75647">
        <ele>152.60000610352</ele>
        <time>2014-01-21T10:37:28.000Z</time>
      </trkpt>
      <trkpt lat="48.68273" lon="1.75643">
        <ele>152.80000305176</ele>
        <time>2014-01-21T10:37:37.000Z</time>
      </trkpt>
      <trkpt lat="48.68264" lon="1.75639">
        <ele>152.80000305176</ele>
        <time>2014-01-21T10:37:45.000Z</time>
      </trkpt>
      <trkpt lat="48.68263" lon="1.75639">
        <ele>152.80000305176</ele>
        <time>2014-01-21T10:37:46.000Z</time>
      </trkpt>
      <trkpt lat="48.68254" lon="1.75632">
        <ele>153</ele>
        <time>2014-01-21T10:37:53.000Z</time>
      </trkpt>
      <trkpt lat="48.6824" lon="1.75628">
        <ele>152.80000305176</ele>
        <time>2014-01-21T10:37:58.000Z</time>
      </trkpt>
      <trkpt lat="48.68229" lon="1.75624">
        <ele>152.80000305176</ele>
        <time>2014-01-21T10:38:02.000Z</time>
      </trkpt>
      <trkpt lat="48.68219" lon="1.75621">
        <ele>152.60000610352</ele>
        <time>2014-01-21T10:38:07.000Z</time>
      </trkpt>
      <trkpt lat="48.68207" lon="1.75618">
        <ele>152.39999389648</ele>
        <time>2014-01-21T10:38:15.000Z</time>
      </trkpt>
      <trkpt lat="48.68191" lon="1.75613">
        <ele>152.19999694824</ele>
        <time>2014-01-21T10:38:26.000Z</time>
      </trkpt>
      <trkpt lat="48.68182" lon="1.75609">
        <ele>152.19999694824</ele>
        <time>2014-01-21T10:38:33.000Z</time>
      </trkpt>
      <trkpt lat="48.6817" lon="1.75603">
        <ele>152</ele>
        <time>2014-01-21T10:38:42.000Z</time>
      </trkpt>
      <trkpt lat="48.68158" lon="1.75596">
        <ele>151.80000305176</ele>
        <time>2014-01-21T10:38:51.000Z</time>
      </trkpt>
      <trkpt lat="48.68143" lon="1.75588">
        <ele>151.39999389648</ele>
        <time>2014-01-21T10:39:02.000Z</time>
      </trkpt>
      <trkpt lat="48.68129" lon="1.7558">
        <ele>151.19999694824</ele>
        <time>2014-01-21T10:39:12.000Z</time>
      </trkpt>
      <trkpt lat="48.68119" lon="1.7557">
        <ele>151</ele>
        <time>2014-01-21T10:39:20.000Z</time>
      </trkpt>
      <trkpt lat="48.6811" lon="1.75561">
        <ele>150.80000305176</ele>
        <time>2014-01-21T10:39:28.000Z</time>
      </trkpt>
      <trkpt lat="48.68108" lon="1.75559">
        <ele>150.60000610352</ele>
        <time>2014-01-21T10:39:30.000Z</time>
      </trkpt>
      <trkpt lat="48.68097" lon="1.75549">
        <ele>150.39999389648</ele>
        <time>2014-01-21T10:39:40.000Z</time>
      </trkpt>
      <trkpt lat="48.68094" lon="1.75545">
        <ele>150.39999389648</ele>
        <time>2014-01-21T10:39:43.000Z</time>
      </trkpt>
      <trkpt lat="48.68087" lon="1.75541">
        <ele>150.19999694824</ele>
        <time>2014-01-21T10:39:49.000Z</time>
      </trkpt>
      <trkpt lat="48.68079" lon="1.75535">
        <ele>149.80000305176</ele>
        <time>2014-01-21T10:39:56.000Z</time>
      </trkpt>
      <trkpt lat="48.68069" lon="1.75527">
        <ele>149.19999694824</ele>
        <time>2014-01-21T10:40:04.000Z</time>
      </trkpt>
      <trkpt lat="48.68068" lon="1.75526">
        <ele>149.19999694824</ele>
        <time>2014-01-21T10:40:05.000Z</time>
      </trkpt>
      <trkpt lat="48.68054" lon="1.75518">
        <ele>148.60000610352</ele>
        <time>2014-01-21T10:40:15.000Z</time>
      </trkpt>
      <trkpt lat="48.68047" lon="1.75513">
        <ele>148.19999694824</ele>
        <time>2014-01-21T10:40:20.000Z</time>
      </trkpt>
      <trkpt lat="48.68046" lon="1.75496">
        <ele>148.19999694824</ele>
        <time>2014-01-21T10:40:28.000Z</time>
      </trkpt>
      <trkpt lat="48.6805" lon="1.75478">
        <ele>148.60000610352</ele>
        <time>2014-01-21T10:40:35.000Z</time>
      </trkpt>
      <trkpt lat="48.68053" lon="1.75464">
        <ele>148.80000305176</ele>
        <time>2014-01-21T10:40:41.000Z</time>
      </trkpt>
      <trkpt lat="48.68056" lon="1.75447">
        <ele>149.19999694824</ele>
        <time>2014-01-21T10:40:49.000Z</time>
      </trkpt>
      <trkpt lat="48.68058" lon="1.75439">
        <ele>149.19999694824</ele>
        <time>2014-01-21T10:40:53.000Z</time>
      </trkpt>
      <trkpt lat="48.68062" lon="1.7542">
        <ele>149.39999389648</ele>
        <time>2014-01-21T10:41:02.000Z</time>
      </trkpt>
      <trkpt lat="48.68065" lon="1.75406">
        <ele>149.60000610352</ele>
        <time>2014-01-21T10:41:09.000Z</time>
      </trkpt>
      <trkpt lat="48.68068" lon="1.75389">
        <ele>150</ele>
        <time>2014-01-21T10:41:17.000Z</time>
      </trkpt>
      <trkpt lat="48.68071" lon="1.75376">
        <ele>150.19999694824</ele>
        <time>2014-01-21T10:41:23.000Z</time>
      </trkpt>
      <trkpt lat="48.68072" lon="1.75351">
        <ele>150.39999389648</ele>
        <time>2014-01-21T10:41:34.000Z</time>
      </trkpt>
      <trkpt lat="48.68074" lon="1.75334">
        <ele>150.60000610352</ele>
        <time>2014-01-21T10:41:41.000Z</time>
      </trkpt>
      <trkpt lat="48.68077" lon="1.75313">
        <ele>150.80000305176</ele>
        <time>2014-01-21T10:41:51.000Z</time>
      </trkpt>
      <trkpt lat="48.68077" lon="1.75306">
        <ele>150.80000305176</ele>
        <time>2014-01-21T10:41:54.000Z</time>
      </trkpt>
      <trkpt lat="48.6808" lon="1.75296">
        <ele>150.80000305176</ele>
        <time>2014-01-21T10:41:59.000Z</time>
      </trkpt>
      <trkpt lat="48.68083" lon="1.75278">
        <ele>151</ele>
        <time>2014-01-21T10:42:06.000Z</time>
      </trkpt>
      <trkpt lat="48.68083" lon="1.75266">
        <ele>151</ele>
        <time>2014-01-21T10:42:10.000Z</time>
      </trkpt>
      <trkpt lat="48.68085" lon="1.75257">
        <ele>151.19999694824</ele>
        <time>2014-01-21T10:42:14.000Z</time>
      </trkpt>
      <trkpt lat="48.68089" lon="1.75238">
        <ele>151</ele>
        <time>2014-01-21T10:42:23.000Z</time>
      </trkpt>
      <trkpt lat="48.68095" lon="1.75225">
        <ele>151</ele>
        <time>2014-01-21T10:42:30.000Z</time>
      </trkpt>
      <trkpt lat="48.68095" lon="1.75223">
        <ele>151</ele>
        <time>2014-01-21T10:42:31.000Z</time>
      </trkpt>
      <trkpt lat="48.68103" lon="1.75212">
        <ele>151.19999694824</ele>
        <time>2014-01-21T10:42:38.000Z</time>
      </trkpt>
      <trkpt lat="48.68112" lon="1.75196">
        <ele>151.60000610352</ele>
        <time>2014-01-21T10:42:44.000Z</time>
      </trkpt>
      <trkpt lat="48.6812" lon="1.75181">
        <ele>151.80000305176</ele>
        <time>2014-01-21T10:42:50.000Z</time>
      </trkpt>
      <trkpt lat="48.68122" lon="1.75178">
        <ele>152</ele>
        <time>2014-01-21T10:42:52.000Z</time>
      </trkpt>
      <trkpt lat="48.68127" lon="1.75171">
        <ele>152.19999694824</ele>
        <time>2014-01-21T10:42:57.000Z</time>
      </trkpt>
      <trkpt lat="48.68132" lon="1.75161">
        <ele>152.39999389648</ele>
        <time>2014-01-21T10:43:03.000Z</time>
      </trkpt>
      <trkpt lat="48.68143" lon="1.75147">
        <ele>152.80000305176</ele>
        <time>2014-01-21T10:43:11.000Z</time>
      </trkpt>
      <trkpt lat="48.68151" lon="1.75136">
        <ele>152.80000305176</ele>
        <time>2014-01-21T10:43:19.000Z</time>
      </trkpt>
      <trkpt lat="48.68153" lon="1.75131">
        <ele>152.80000305176</ele>
        <time>2014-01-21T10:43:22.000Z</time>
      </trkpt>
      <trkpt lat="48.6816" lon="1.75123">
        <ele>152.80000305176</ele>
        <time>2014-01-21T10:43:29.000Z</time>
      </trkpt>
      <trkpt lat="48.68162" lon="1.7512">
        <ele>152.80000305176</ele>
        <time>2014-01-21T10:43:31.000Z</time>
      </trkpt>
      <trkpt lat="48.68169" lon="1.75111">
        <ele>153</ele>
        <time>2014-01-21T10:43:37.000Z</time>
      </trkpt>
      <trkpt lat="48.68177" lon="1.75102">
        <ele>153.19999694824</ele>
        <time>2014-01-21T10:43:44.000Z</time>
      </trkpt>
      <trkpt lat="48.68181" lon="1.75087">
        <ele>153.19999694824</ele>
        <time>2014-01-21T10:43:50.000Z</time>
      </trkpt>
      <trkpt lat="48.68183" lon="1.75078">
        <ele>153</ele>
        <time>2014-01-21T10:43:54.000Z</time>
      </trkpt>
      <trkpt lat="48.68187" lon="1.75063">
        <ele>153.19999694824</ele>
        <time>2014-01-21T10:44:01.000Z</time>
      </trkpt>
      <trkpt lat="48.6819" lon="1.75049">
        <ele>153.19999694824</ele>
        <time>2014-01-21T10:44:08.000Z</time>
      </trkpt>
      <trkpt lat="48.68192" lon="1.75041">
        <ele>153.19999694824</ele>
        <time>2014-01-21T10:44:12.000Z</time>
      </trkpt>
      <trkpt lat="48.68198" lon="1.75019">
        <ele>153.19999694824</ele>
        <time>2014-01-21T10:44:21.000Z</time>
      </trkpt>
      <trkpt lat="48.682" lon="1.7501">
        <ele>153.19999694824</ele>
        <time>2014-01-21T10:44:25.000Z</time>
      </trkpt>
      <trkpt lat="48.68205" lon="1.74997">
        <ele>153.19999694824</ele>
        <time>2014-01-21T10:44:30.000Z</time>
      </trkpt>
      <trkpt lat="48.68206" lon="1.74994">
        <ele>153.19999694824</ele>
        <time>2014-01-21T10:44:31.000Z</time>
      </trkpt>
      <trkpt lat="48.68207" lon="1.74988">
        <ele>153.19999694824</ele>
        <time>2014-01-21T10:44:34.000Z</time>
      </trkpt>
      <trkpt lat="48.68214" lon="1.74972">
        <ele>153.19999694824</ele>
        <time>2014-01-21T10:44:43.000Z</time>
      </trkpt>
      <trkpt lat="48.6822" lon="1.74957">
        <ele>153</ele>
        <time>2014-01-21T10:44:51.000Z</time>
      </trkpt>
      <trkpt lat="48.68224" lon="1.74945">
        <ele>152.80000305176</ele>
        <time>2014-01-21T10:44:58.000Z</time>
      </trkpt>
      <trkpt lat="48.68229" lon="1.7493">
        <ele>152.39999389648</ele>
        <time>2014-01-21T10:45:05.000Z</time>
      </trkpt>
      <trkpt lat="48.6823" lon="1.74928">
        <ele>152.19999694824</ele>
        <time>2014-01-21T10:45:06.000Z</time>
      </trkpt>
      <trkpt lat="48.68234" lon="1.74915">
        <ele>151.80000305176</ele>
        <time>2014-01-21T10:45:12.000Z</time>
      </trkpt>
      <trkpt lat="48.68235" lon="1.74908">
        <ele>151.80000305176</ele>
        <time>2014-01-21T10:45:15.000Z</time>
      </trkpt>
      <trkpt lat="48.6824" lon="1.74894">
        <ele>151.80000305176</ele>
        <time>2014-01-21T10:45:21.000Z</time>
      </trkpt>
      <trkpt lat="48.68243" lon="1.74882">
        <ele>151.80000305176</ele>
        <time>2014-01-21T10:45:27.000Z</time>
      </trkpt>
      <trkpt lat="48.68246" lon="1.74871">
        <ele>151.60000610352</ele>
        <time>2014-01-21T10:45:33.000Z</time>
      </trkpt>
      <trkpt lat="48.68252" lon="1.74859">
        <ele>151.60000610352</ele>
        <time>2014-01-21T10:45:40.000Z</time>
      </trkpt>
      <trkpt lat="48.68258" lon="1.74848">
        <ele>152</ele>
        <time>2014-01-21T10:45:46.000Z</time>
      </trkpt>
      <trkpt lat="48.68268" lon="1.74835">
        <ele>153</ele>
        <time>2014-01-21T10:45:54.000Z</time>
      </trkpt>
      <trkpt lat="48.68269" lon="1.74834">
        <ele>153</ele>
        <time>2014-01-21T10:45:55.000Z</time>
      </trkpt>
      <trkpt lat="48.68274" lon="1.74824">
        <ele>153.80000305176</ele>
        <time>2014-01-21T10:46:01.000Z</time>
      </trkpt>
      <trkpt lat="48.68279" lon="1.74816">
        <ele>154.19999694824</ele>
        <time>2014-01-21T10:46:06.000Z</time>
      </trkpt>
      <trkpt lat="48.68284" lon="1.74799">
        <ele>154.80000305176</ele>
        <time>2014-01-21T10:46:15.000Z</time>
      </trkpt>
      <trkpt lat="48.68285" lon="1.74795">
        <ele>154.80000305176</ele>
        <time>2014-01-21T10:46:17.000Z</time>
      </trkpt>
      <trkpt lat="48.68287" lon="1.74787">
        <ele>155</ele>
        <time>2014-01-21T10:46:21.000Z</time>
      </trkpt>
      <trkpt lat="48.68289" lon="1.74784">
        <ele>155</ele>
        <time>2014-01-21T10:46:23.000Z</time>
      </trkpt>
      <trkpt lat="48.68297" lon="1.7477">
        <ele>155.39999389648</ele>
        <time>2014-01-21T10:46:31.000Z</time>
      </trkpt>
      <trkpt lat="48.68299" lon="1.74765">
        <ele>155.39999389648</ele>
        <time>2014-01-21T10:46:34.000Z</time>
      </trkpt>
      <trkpt lat="48.68306" lon="1.74752">
        <ele>155.39999389648</ele>
        <time>2014-01-21T10:46:42.000Z</time>
      </trkpt>
      <trkpt lat="48.68312" lon="1.74742">
        <ele>155.39999389648</ele>
        <time>2014-01-21T10:46:48.000Z</time>
      </trkpt>
      <trkpt lat="48.68317" lon="1.74732">
        <ele>155.19999694824</ele>
        <time>2014-01-21T10:46:54.000Z</time>
      </trkpt>
      <trkpt lat="48.68321" lon="1.74721">
        <ele>155</ele>
        <time>2014-01-21T10:47:00.000Z</time>
      </trkpt>
      <trkpt lat="48.68327" lon="1.74712">
        <ele>154.80000305176</ele>
        <time>2014-01-21T10:47:05.000Z</time>
      </trkpt>
      <trkpt lat="48.68335" lon="1.747">
        <ele>154.39999389648</ele>
        <time>2014-01-21T10:47:12.000Z</time>
      </trkpt>
      <trkpt lat="48.68337" lon="1.74696">
        <ele>154.39999389648</ele>
        <time>2014-01-21T10:47:14.000Z</time>
      </trkpt>
      <trkpt lat="48.68343" lon="1.74684">
        <ele>154.39999389648</ele>
        <time>2014-01-21T10:47:20.000Z</time>
      </trkpt>
      <trkpt lat="48.68349" lon="1.74671">
        <ele>154.19999694824</ele>
        <time>2014-01-21T10:47:27.000Z</time>
      </trkpt>
      <trkpt lat="48.68352" lon="1.74657">
        <ele>154.39999389648</ele>
        <time>2014-01-21T10:47:34.000Z</time>
      </trkpt>
      <trkpt lat="48.68352" lon="1.74654">
        <ele>154.39999389648</ele>
        <time>2014-01-21T10:47:35.000Z</time>
      </trkpt>
      <trkpt lat="48.68357" lon="1.74642">
        <ele>154.60000610352</ele>
        <time>2014-01-21T10:47:42.000Z</time>
      </trkpt>
      <trkpt lat="48.68358" lon="1.74636">
        <ele>154.80000305176</ele>
        <time>2014-01-21T10:47:45.000Z</time>
      </trkpt>
      <trkpt lat="48.68363" lon="1.74626">
        <ele>154.80000305176</ele>
        <time>2014-01-21T10:47:50.000Z</time>
      </trkpt>
      <trkpt lat="48.68364" lon="1.7462">
        <ele>154.80000305176</ele>
        <time>2014-01-21T10:47:53.000Z</time>
      </trkpt>
      <trkpt lat="48.6837" lon="1.74607">
        <ele>154.80000305176</ele>
        <time>2014-01-21T10:48:00.000Z</time>
      </trkpt>
      <trkpt lat="48.68374" lon="1.74592">
        <ele>154.60000610352</ele>
        <time>2014-01-21T10:48:07.000Z</time>
      </trkpt>
      <trkpt lat="48.68375" lon="1.74588">
        <ele>154.60000610352</ele>
        <time>2014-01-21T10:48:09.000Z</time>
      </trkpt>
      <trkpt lat="48.68381" lon="1.74581">
        <ele>154.39999389648</ele>
        <time>2014-01-21T10:48:14.000Z</time>
      </trkpt>
      <trkpt lat="48.68387" lon="1.74579">
        <ele>154.39999389648</ele>
        <time>2014-01-21T10:48:19.000Z</time>
      </trkpt>
      <trkpt lat="48.68394" lon="1.7458">
        <ele>154.19999694824</ele>
        <time>2014-01-21T10:48:24.000Z</time>
      </trkpt>
      <trkpt lat="48.68398" lon="1.74588">
        <ele>154.39999389648</ele>
        <time>2014-01-21T10:48:28.000Z</time>
      </trkpt>
      <trkpt lat="48.684" lon="1.74597">
        <ele>154.80000305176</ele>
        <time>2014-01-21T10:48:33.000Z</time>
      </trkpt>
      <trkpt lat="48.68405" lon="1.74598">
        <ele>154.80000305176</ele>
        <time>2014-01-21T10:48:39.000Z</time>
      </trkpt>
      <trkpt lat="48.68405" lon="1.74598">
        <ele>154.80000305176</ele>
        <time>2014-01-21T10:48:40.000Z</time>
      </trkpt>
      <trkpt lat="48.68413" lon="1.74604">
        <ele>155.19999694824</ele>
        <time>2014-01-21T10:48:49.000Z</time>
      </trkpt>
      <trkpt lat="48.6842" lon="1.74605">
        <ele>155.60000610352</ele>
        <time>2014-01-21T10:48:54.000Z</time>
      </trkpt>
      <trkpt lat="48.68426" lon="1.74602">
        <ele>156</ele>
        <time>2014-01-21T10:48:59.000Z</time>
      </trkpt>
      <trkpt lat="48.68432" lon="1.74592">
        <ele>156.19999694824</ele>
        <time>2014-01-21T10:49:06.000Z</time>
      </trkpt>
      <trkpt lat="48.68439" lon="1.74587">
        <ele>156.60000610352</ele>
        <time>2014-01-21T10:49:12.000Z</time>
      </trkpt>
      <trkpt lat="48.68449" lon="1.74577">
        <ele>157.19999694824</ele>
        <time>2014-01-21T10:49:21.000Z</time>
      </trkpt>
      <trkpt lat="48.68457" lon="1.74569">
        <ele>157.39999389648</ele>
        <time>2014-01-21T10:49:27.000Z</time>
      </trkpt>
      <trkpt lat="48.68467" lon="1.74559">
        <ele>157.80000305176</ele>
        <time>2014-01-21T10:49:35.000Z</time>
      </trkpt>
      <trkpt lat="48.68473" lon="1.74554">
        <ele>157.80000305176</ele>
        <time>2014-01-21T10:49:39.000Z</time>
      </trkpt>
      <trkpt lat="48.68479" lon="1.74545">
        <ele>157.60000610352</ele>
        <time>2014-01-21T10:49:45.000Z</time>
      </trkpt>
      <trkpt lat="48.68489" lon="1.74536">
        <ele>157.60000610352</ele>
        <time>2014-01-21T10:49:52.000Z</time>
      </trkpt>
      <trkpt lat="48.68498" lon="1.74526">
        <ele>157.39999389648</ele>
        <time>2014-01-21T10:49:59.000Z</time>
      </trkpt>
      <trkpt lat="48.68503" lon="1.74521">
        <ele>157.19999694824</ele>
        <time>2014-01-21T10:50:03.000Z</time>
      </trkpt>
      <trkpt lat="48.68512" lon="1.74513">
        <ele>157.19999694824</ele>
        <time>2014-01-21T10:50:10.000Z</time>
      </trkpt>
      <trkpt lat="48.68513" lon="1.74512">
        <ele>157.19999694824</ele>
        <time>2014-01-21T10:50:11.000Z</time>
      </trkpt>
      <trkpt lat="48.6852" lon="1.74505">
        <ele>157.19999694824</ele>
        <time>2014-01-21T10:50:17.000Z</time>
      </trkpt>
      <trkpt lat="48.68531" lon="1.74496">
        <ele>157.19999694824</ele>
        <time>2014-01-21T10:50:24.000Z</time>
      </trkpt>
      <trkpt lat="48.68535" lon="1.74493">
        <ele>157.39999389648</ele>
        <time>2014-01-21T10:50:27.000Z</time>
      </trkpt>
      <trkpt lat="48.68542" lon="1.74488">
        <ele>157.80000305176</ele>
        <time>2014-01-21T10:50:33.000Z</time>
      </trkpt>
      <trkpt lat="48.68549" lon="1.74482">
        <ele>157.80000305176</ele>
        <time>2014-01-21T10:50:38.000Z</time>
      </trkpt>
      <trkpt lat="48.68555" lon="1.74473">
        <ele>157.60000610352</ele>
        <time>2014-01-21T10:50:44.000Z</time>
      </trkpt>
      <trkpt lat="48.68557" lon="1.74472">
        <ele>157.80000305176</ele>
        <time>2014-01-21T10:50:45.000Z</time>
      </trkpt>
      <trkpt lat="48.68565" lon="1.74466">
        <ele>158</ele>
        <time>2014-01-21T10:50:52.000Z</time>
      </trkpt>
      <trkpt lat="48.68572" lon="1.74456">
        <ele>158</ele>
        <time>2014-01-21T10:50:58.000Z</time>
      </trkpt>
      <trkpt lat="48.68579" lon="1.74446">
        <ele>157.80000305176</ele>
        <time>2014-01-21T10:51:04.000Z</time>
      </trkpt>
      <trkpt lat="48.68587" lon="1.74436">
        <ele>157.80000305176</ele>
        <time>2014-01-21T10:51:11.000Z</time>
      </trkpt>
      <trkpt lat="48.6859" lon="1.74423">
        <ele>157.19999694824</ele>
        <time>2014-01-21T10:51:17.000Z</time>
      </trkpt>
      <trkpt lat="48.68596" lon="1.74414">
        <ele>157.39999389648</ele>
        <time>2014-01-21T10:51:23.000Z</time>
      </trkpt>
      <trkpt lat="48.68601" lon="1.74408">
        <ele>157.80000305176</ele>
        <time>2014-01-21T10:51:28.000Z</time>
      </trkpt>
      <trkpt lat="48.68607" lon="1.74398">
        <ele>158</ele>
        <time>2014-01-21T10:51:34.000Z</time>
      </trkpt>
      <trkpt lat="48.68615" lon="1.74388">
        <ele>158.60000610352</ele>
        <time>2014-01-21T10:51:41.000Z</time>
      </trkpt>
      <trkpt lat="48.68619" lon="1.7438">
        <ele>158.60000610352</ele>
        <time>2014-01-21T10:51:48.000Z</time>
      </trkpt>
      <trkpt lat="48.68622" lon="1.74374">
        <ele>158.80000305176</ele>
        <time>2014-01-21T10:51:54.000Z</time>
      </trkpt>
      <trkpt lat="48.68627" lon="1.74363">
        <ele>158.80000305176</ele>
        <time>2014-01-21T10:52:00.000Z</time>
      </trkpt>
      <trkpt lat="48.68632" lon="1.74355">
        <ele>158.80000305176</ele>
        <time>2014-01-21T10:52:05.000Z</time>
      </trkpt>
      <trkpt lat="48.68639" lon="1.74347">
        <ele>159</ele>
        <time>2014-01-21T10:52:12.000Z</time>
      </trkpt>
      <trkpt lat="48.68647" lon="1.74336">
        <ele>159</ele>
        <time>2014-01-21T10:52:19.000Z</time>
      </trkpt>
      <trkpt lat="48.68651" lon="1.74325">
        <ele>159</ele>
        <time>2014-01-21T10:52:25.000Z</time>
      </trkpt>
      <trkpt lat="48.68657" lon="1.74315">
        <ele>159</ele>
        <time>2014-01-21T10:52:31.000Z</time>
      </trkpt>
      <trkpt lat="48.68661" lon="1.7431">
        <ele>159</ele>
        <time>2014-01-21T10:52:35.000Z</time>
      </trkpt>
      <trkpt lat="48.68671" lon="1.74298">
        <ele>159</ele>
        <time>2014-01-21T10:52:44.000Z</time>
      </trkpt>
      <trkpt lat="48.68678" lon="1.74295">
        <ele>159.19999694824</ele>
        <time>2014-01-21T10:52:50.000Z</time>
      </trkpt>
      <trkpt lat="48.68689" lon="1.74292">
        <ele>159.39999389648</ele>
        <time>2014-01-21T10:52:58.000Z</time>
      </trkpt>
      <trkpt lat="48.68701" lon="1.7429">
        <ele>159.80000305176</ele>
        <time>2014-01-21T10:53:06.000Z</time>
      </trkpt>
      <trkpt lat="48.68702" lon="1.7429">
        <ele>159.80000305176</ele>
        <time>2014-01-21T10:53:07.000Z</time>
      </trkpt>
      <trkpt lat="48.68708" lon="1.74289">
        <ele>160</ele>
        <time>2014-01-21T10:53:13.000Z</time>
      </trkpt>
      <trkpt lat="48.68711" lon="1.7429">
        <ele>160.19999694824</ele>
        <time>2014-01-21T10:53:15.000Z</time>
      </trkpt>
      <trkpt lat="48.68716" lon="1.74293">
        <ele>160.60000610352</ele>
        <time>2014-01-21T10:53:19.000Z</time>
      </trkpt>
      <trkpt lat="48.68725" lon="1.74304">
        <ele>162</ele>
        <time>2014-01-21T10:53:28.000Z</time>
      </trkpt>
      <trkpt lat="48.68735" lon="1.74312">
        <ele>163.39999389648</ele>
        <time>2014-01-21T10:53:36.000Z</time>
      </trkpt>
      <trkpt lat="48.68744" lon="1.74318">
        <ele>164.80000305176</ele>
        <time>2014-01-21T10:53:43.000Z</time>
      </trkpt>
      <trkpt lat="48.68745" lon="1.74319">
        <ele>164.80000305176</ele>
        <time>2014-01-21T10:53:44.000Z</time>
      </trkpt>
      <trkpt lat="48.68754" lon="1.74323">
        <ele>165.39999389648</ele>
        <time>2014-01-21T10:53:51.000Z</time>
      </trkpt>
      <trkpt lat="48.68755" lon="1.74324">
        <ele>165.19999694824</ele>
        <time>2014-01-21T10:53:52.000Z</time>
      </trkpt>
      <trkpt lat="48.6876" lon="1.74329">
        <ele>165</ele>
        <time>2014-01-21T10:53:57.000Z</time>
      </trkpt>
      <trkpt lat="48.68765" lon="1.74338">
        <ele>165</ele>
        <time>2014-01-21T10:54:02.000Z</time>
      </trkpt>
      <trkpt lat="48.68766" lon="1.74339">
        <ele>164.80000305176</ele>
        <time>2014-01-21T10:54:03.000Z</time>
      </trkpt>
      <trkpt lat="48.68771" lon="1.7435">
        <ele>164.60000610352</ele>
        <time>2014-01-21T10:54:10.000Z</time>
      </trkpt>
      <trkpt lat="48.68776" lon="1.74363">
        <ele>164.19999694824</ele>
        <time>2014-01-21T10:54:16.000Z</time>
      </trkpt>
      <trkpt lat="48.68778" lon="1.74376">
        <ele>164.39999389648</ele>
        <time>2014-01-21T10:54:22.000Z</time>
      </trkpt>
      <trkpt lat="48.68778" lon="1.74385">
        <ele>164.80000305176</ele>
        <time>2014-01-21T10:54:26.000Z</time>
      </trkpt>
      <trkpt lat="48.68776" lon="1.74397">
        <ele>165.39999389648</ele>
        <time>2014-01-21T10:54:32.000Z</time>
      </trkpt>
      <trkpt lat="48.68774" lon="1.7441">
        <ele>166.39999389648</ele>
        <time>2014-01-21T10:54:38.000Z</time>
      </trkpt>
      <trkpt lat="48.68771" lon="1.74427">
        <ele>166.80000305176</ele>
        <time>2014-01-21T10:54:47.000Z</time>
      </trkpt>
      <trkpt lat="48.68766" lon="1.74444">
        <ele>167.39999389648</ele>
        <time>2014-01-21T10:54:55.000Z</time>
      </trkpt>
      <trkpt lat="48.6876" lon="1.74458">
        <ele>168</ele>
        <time>2014-01-21T10:55:03.000Z</time>
      </trkpt>
      <trkpt lat="48.68758" lon="1.7446">
        <ele>168.19999694824</ele>
        <time>2014-01-21T10:55:05.000Z</time>
      </trkpt>
      <trkpt lat="48.68755" lon="1.74469">
        <ele>168.60000610352</ele>
        <time>2014-01-21T10:55:11.000Z</time>
      </trkpt>
      <trkpt lat="48.68755" lon="1.74483">
        <ele>168.60000610352</ele>
        <time>2014-01-21T10:55:19.000Z</time>
      </trkpt>
      <trkpt lat="48.68751" lon="1.745">
        <ele>169</ele>
        <time>2014-01-21T10:55:25.000Z</time>
      </trkpt>
      <trkpt lat="48.68746" lon="1.74509">
        <ele>168.80000305176</ele>
        <time>2014-01-21T10:55:31.000Z</time>
      </trkpt>
      <trkpt lat="48.68741" lon="1.74521">
        <ele>168.39999389648</ele>
        <time>2014-01-21T10:55:36.000Z</time>
      </trkpt>
      <trkpt lat="48.68736" lon="1.74528">
        <ele>168.39999389648</ele>
        <time>2014-01-21T10:55:42.000Z</time>
      </trkpt>
      <trkpt lat="48.68731" lon="1.74542">
        <ele>168.19999694824</ele>
        <time>2014-01-21T10:55:49.000Z</time>
      </trkpt>
      <trkpt lat="48.68726" lon="1.74551">
        <ele>168.19999694824</ele>
        <time>2014-01-21T10:55:57.000Z</time>
      </trkpt>
      <trkpt lat="48.68722" lon="1.74566">
        <ele>168.19999694824</ele>
        <time>2014-01-21T10:56:04.000Z</time>
      </trkpt>
      <trkpt lat="48.68717" lon="1.74578">
        <ele>168.19999694824</ele>
        <time>2014-01-21T10:56:12.000Z</time>
      </trkpt>
      <trkpt lat="48.68715" lon="1.74583">
        <ele>168.19999694824</ele>
        <time>2014-01-21T10:56:15.000Z</time>
      </trkpt>
      <trkpt lat="48.68714" lon="1.74595">
        <ele>168.19999694824</ele>
        <time>2014-01-21T10:56:19.000Z</time>
      </trkpt>
      <trkpt lat="48.6871" lon="1.74612">
        <ele>168.19999694824</ele>
        <time>2014-01-21T10:56:27.000Z</time>
      </trkpt>
      <trkpt lat="48.68707" lon="1.74623">
        <ele>168.39999389648</ele>
        <time>2014-01-21T10:56:33.000Z</time>
      </trkpt>
      <trkpt lat="48.68699" lon="1.74636">
        <ele>168.60000610352</ele>
        <time>2014-01-21T10:56:41.000Z</time>
      </trkpt>
      <trkpt lat="48.68692" lon="1.74646">
        <ele>168.80000305176</ele>
        <time>2014-01-21T10:56:49.000Z</time>
      </trkpt>
      <trkpt lat="48.68687" lon="1.74667">
        <ele>169</ele>
        <time>2014-01-21T10:56:57.000Z</time>
      </trkpt>
      <trkpt lat="48.68685" lon="1.74679">
        <ele>169</ele>
        <time>2014-01-21T10:57:04.000Z</time>
      </trkpt>
      <trkpt lat="48.6868" lon="1.74689">
        <ele>169.19999694824</ele>
        <time>2014-01-21T10:57:11.000Z</time>
      </trkpt>
      <trkpt lat="48.68678" lon="1.74701">
        <ele>169.19999694824</ele>
        <time>2014-01-21T10:57:16.000Z</time>
      </trkpt>
      <trkpt lat="48.68681" lon="1.74708">
        <ele>169</ele>
        <time>2014-01-21T10:57:20.000Z</time>
      </trkpt>
      <trkpt lat="48.68687" lon="1.7472">
        <ele>168.39999389648</ele>
        <time>2014-01-21T10:57:27.000Z</time>
      </trkpt>
      <trkpt lat="48.68689" lon="1.74722">
        <ele>168.19999694824</ele>
        <time>2014-01-21T10:57:29.000Z</time>
      </trkpt>
      <trkpt lat="48.68692" lon="1.74734">
        <ele>167.80000305176</ele>
        <time>2014-01-21T10:57:35.000Z</time>
      </trkpt>
      <trkpt lat="48.68696" lon="1.74741">
        <ele>167.19999694824</ele>
        <time>2014-01-21T10:57:39.000Z</time>
      </trkpt>
      <trkpt lat="48.68698" lon="1.74746">
        <ele>167</ele>
        <time>2014-01-21T10:57:41.000Z</time>
      </trkpt>
      <trkpt lat="48.68702" lon="1.74758">
        <ele>166.19999694824</ele>
        <time>2014-01-21T10:57:47.000Z</time>
      </trkpt>
      <trkpt lat="48.68704" lon="1.74765">
        <ele>165.80000305176</ele>
        <time>2014-01-21T10:57:50.000Z</time>
      </trkpt>
      <trkpt lat="48.68705" lon="1.74769">
        <ele>165.39999389648</ele>
        <time>2014-01-21T10:57:52.000Z</time>
      </trkpt>
      <trkpt lat="48.68709" lon="1.74776">
        <ele>164.80000305176</ele>
        <time>2014-01-21T10:57:56.000Z</time>
      </trkpt>
      <trkpt lat="48.68712" lon="1.74787">
        <ele>164.19999694824</ele>
        <time>2014-01-21T10:58:01.000Z</time>
      </trkpt>
      <trkpt lat="48.68718" lon="1.748">
        <ele>163</ele>
        <time>2014-01-21T10:58:08.000Z</time>
      </trkpt>
      <trkpt lat="48.6872" lon="1.74804">
        <ele>162.80000305176</ele>
        <time>2014-01-21T10:58:10.000Z</time>
      </trkpt>
      <trkpt lat="48.68724" lon="1.74813">
        <ele>162</ele>
        <time>2014-01-21T10:58:15.000Z</time>
      </trkpt>
      <trkpt lat="48.68725" lon="1.74816">
        <ele>161.80000305176</ele>
        <time>2014-01-21T10:58:19.000Z</time>
      </trkpt>
      <trkpt lat="48.68725" lon="1.74819">
        <ele>161.60000610352</ele>
        <time>2014-01-21T10:58:28.000Z</time>
      </trkpt>
      <trkpt lat="48.68725" lon="1.74819">
        <ele>161.60000610352</ele>
        <time>2014-01-21T10:58:29.000Z</time>
      </trkpt>
      <trkpt lat="48.68732" lon="1.7483">
        <ele>160.60000610352</ele>
        <time>2014-01-21T10:58:54.000Z</time>
      </trkpt>
      <trkpt lat="48.68734" lon="1.74834">
        <ele>160.19999694824</ele>
        <time>2014-01-21T10:58:59.000Z</time>
      </trkpt>
      <trkpt lat="48.68739" lon="1.74841">
        <ele>159.80000305176</ele>
        <time>2014-01-21T10:59:08.000Z</time>
      </trkpt>
      <trkpt lat="48.68744" lon="1.74854">
        <ele>159</ele>
        <time>2014-01-21T10:59:11.000Z</time>
      </trkpt>
      <trkpt lat="48.68747" lon="1.74866">
        <ele>158.39999389648</ele>
        <time>2014-01-21T10:59:17.000Z</time>
      </trkpt>
      <trkpt lat="48.68751" lon="1.74877">
        <ele>158</ele>
        <time>2014-01-21T10:59:22.000Z</time>
      </trkpt>
      <trkpt lat="48.68752" lon="1.7488">
        <ele>157.80000305176</ele>
        <time>2014-01-21T10:59:24.000Z</time>
      </trkpt>
      <trkpt lat="48.68758" lon="1.74889">
        <ele>157.60000610352</ele>
        <time>2014-01-21T10:59:30.000Z</time>
      </trkpt>
      <trkpt lat="48.68764" lon="1.74896">
        <ele>157.19999694824</ele>
        <time>2014-01-21T10:59:34.000Z</time>
      </trkpt>
      <trkpt lat="48.68774" lon="1.74912">
        <ele>156.80000305176</ele>
        <time>2014-01-21T10:59:41.000Z</time>
      </trkpt>
      <trkpt lat="48.68776" lon="1.74922">
        <ele>156.60000610352</ele>
        <time>2014-01-21T10:59:45.000Z</time>
      </trkpt>
      <trkpt lat="48.68782" lon="1.74929">
        <ele>156.39999389648</ele>
        <time>2014-01-21T10:59:50.000Z</time>
      </trkpt>
      <trkpt lat="48.68785" lon="1.74934">
        <ele>156.39999389648</ele>
        <time>2014-01-21T10:59:53.000Z</time>
      </trkpt>
      <trkpt lat="48.68794" lon="1.74947">
        <ele>156.19999694824</ele>
        <time>2014-01-21T11:00:01.000Z</time>
      </trkpt>
      <trkpt lat="48.68801" lon="1.74957">
        <ele>156</ele>
        <time>2014-01-21T11:00:07.000Z</time>
      </trkpt>
      <trkpt lat="48.68806" lon="1.7497">
        <ele>155.60000610352</ele>
        <time>2014-01-21T11:00:14.000Z</time>
      </trkpt>
      <trkpt lat="48.68809" lon="1.74979">
        <ele>155.60000610352</ele>
        <time>2014-01-21T11:00:19.000Z</time>
      </trkpt>
      <trkpt lat="48.68814" lon="1.7499">
        <ele>155.39999389648</ele>
        <time>2014-01-21T11:00:25.000Z</time>
      </trkpt>
      <trkpt lat="48.6882" lon="1.75001">
        <ele>155.19999694824</ele>
        <time>2014-01-21T11:00:32.000Z</time>
      </trkpt>
      <trkpt lat="48.68822" lon="1.75005">
        <ele>155.19999694824</ele>
        <time>2014-01-21T11:00:34.000Z</time>
      </trkpt>
      <trkpt lat="48.68829" lon="1.7502">
        <ele>155</ele>
        <time>2014-01-21T11:00:42.000Z</time>
      </trkpt>
      <trkpt lat="48.68833" lon="1.75029">
        <ele>155</ele>
        <time>2014-01-21T11:00:48.000Z</time>
      </trkpt>
      <trkpt lat="48.68835" lon="1.75035">
        <ele>155</ele>
        <time>2014-01-21T11:00:51.000Z</time>
      </trkpt>
      <trkpt lat="48.68842" lon="1.7505">
        <ele>154.80000305176</ele>
        <time>2014-01-21T11:00:59.000Z</time>
      </trkpt>
      <trkpt lat="48.68848" lon="1.75062">
        <ele>154.80000305176</ele>
        <time>2014-01-21T11:01:06.000Z</time>
      </trkpt>
      <trkpt lat="48.68849" lon="1.75064">
        <ele>154.80000305176</ele>
        <time>2014-01-21T11:01:07.000Z</time>
      </trkpt>
      <trkpt lat="48.68855" lon="1.75076">
        <ele>154.80000305176</ele>
        <time>2014-01-21T11:01:14.000Z</time>
      </trkpt>
      <trkpt lat="48.68857" lon="1.7508">
        <ele>154.80000305176</ele>
        <time>2014-01-21T11:01:16.000Z</time>
      </trkpt>
      <trkpt lat="48.6886" lon="1.75084">
        <ele>154.60000610352</ele>
        <time>2014-01-21T11:01:19.000Z</time>
      </trkpt>
      <trkpt lat="48.68863" lon="1.75089">
        <ele>154.60000610352</ele>
        <time>2014-01-21T11:01:22.000Z</time>
      </trkpt>
      <trkpt lat="48.68869" lon="1.75104">
        <ele>154.39999389648</ele>
        <time>2014-01-21T11:01:30.000Z</time>
      </trkpt>
      <trkpt lat="48.68872" lon="1.75109">
        <ele>154.39999389648</ele>
        <time>2014-01-21T11:01:34.000Z</time>
      </trkpt>
      <trkpt lat="48.68874" lon="1.75116">
        <ele>154.39999389648</ele>
        <time>2014-01-21T11:01:38.000Z</time>
      </trkpt>
      <trkpt lat="48.68881" lon="1.75129">
        <ele>154.19999694824</ele>
        <time>2014-01-21T11:01:45.000Z</time>
      </trkpt>
      <trkpt lat="48.68882" lon="1.75133">
        <ele>154</ele>
        <time>2014-01-21T11:01:47.000Z</time>
      </trkpt>
      <trkpt lat="48.68891" lon="1.7515">
        <ele>153.80000305176</ele>
        <time>2014-01-21T11:01:56.000Z</time>
      </trkpt>
      <trkpt lat="48.68895" lon="1.75159">
        <ele>153.60000610352</ele>
        <time>2014-01-21T11:02:01.000Z</time>
      </trkpt>
      <trkpt lat="48.68899" lon="1.75169">
        <ele>153.39999389648</ele>
        <time>2014-01-21T11:02:06.000Z</time>
      </trkpt>
      <trkpt lat="48.68906" lon="1.75181">
        <ele>153.19999694824</ele>
        <time>2014-01-21T11:02:11.000Z</time>
      </trkpt>
      <trkpt lat="48.68914" lon="1.75198">
        <ele>153</ele>
        <time>2014-01-21T11:02:18.000Z</time>
      </trkpt>
      <trkpt lat="48.68922" lon="1.7521">
        <ele>153</ele>
        <time>2014-01-21T11:02:25.000Z</time>
      </trkpt>
      <trkpt lat="48.6893" lon="1.75224">
        <ele>153.19999694824</ele>
        <time>2014-01-21T11:02:33.000Z</time>
      </trkpt>
      <trkpt lat="48.6894" lon="1.75239">
        <ele>153.60000610352</ele>
        <time>2014-01-21T11:02:42.000Z</time>
      </trkpt>
      <trkpt lat="48.68949" lon="1.75255">
        <ele>153.80000305176</ele>
        <time>2014-01-21T11:02:51.000Z</time>
      </trkpt>
      <trkpt lat="48.68957" lon="1.75274">
        <ele>154.39999389648</ele>
        <time>2014-01-21T11:03:00.000Z</time>
      </trkpt>
      <trkpt lat="48.68963" lon="1.75286">
        <ele>154.80000305176</ele>
        <time>2014-01-21T11:03:07.000Z</time>
      </trkpt>
      <trkpt lat="48.68967" lon="1.75298">
        <ele>155.19999694824</ele>
        <time>2014-01-21T11:03:13.000Z</time>
      </trkpt>
      <trkpt lat="48.6897" lon="1.75307">
        <ele>155.39999389648</ele>
        <time>2014-01-21T11:03:17.000Z</time>
      </trkpt>
      <trkpt lat="48.68981" lon="1.75327">
        <ele>156.19999694824</ele>
        <time>2014-01-21T11:03:23.000Z</time>
      </trkpt>
      <trkpt lat="48.68994" lon="1.75349">
        <ele>157</ele>
        <time>2014-01-21T11:03:29.000Z</time>
      </trkpt>
      <trkpt lat="48.69006" lon="1.75369">
        <ele>157.39999389648</ele>
        <time>2014-01-21T11:03:34.000Z</time>
      </trkpt>
      <trkpt lat="48.6902" lon="1.7539">
        <ele>157.60000610352</ele>
        <time>2014-01-21T11:03:38.000Z</time>
      </trkpt>
      <trkpt lat="48.69028" lon="1.75402">
        <ele>157.39999389648</ele>
        <time>2014-01-21T11:03:40.000Z</time>
      </trkpt>
      <trkpt lat="48.6905" lon="1.75438">
        <ele>157.19999694824</ele>
        <time>2014-01-21T11:03:45.000Z</time>
      </trkpt>
      <trkpt lat="48.69082" lon="1.75492">
        <ele>157</ele>
        <time>2014-01-21T11:03:52.000Z</time>
      </trkpt>
      <trkpt lat="48.69114" lon="1.75544">
        <ele>158.19999694824</ele>
        <time>2014-01-21T11:03:59.000Z</time>
      </trkpt>
      <trkpt lat="48.6914" lon="1.7559">
        <ele>158</ele>
        <time>2014-01-21T11:04:05.000Z</time>
      </trkpt>
      <trkpt lat="48.6916" lon="1.75628">
        <ele>159.39999389648</ele>
        <time>2014-01-21T11:04:10.000Z</time>
      </trkpt>
      <trkpt lat="48.69175" lon="1.75653">
        <ele>160.80000305176</ele>
        <time>2014-01-21T11:04:14.000Z</time>
      </trkpt>
      <trkpt lat="48.69193" lon="1.75685">
        <ele>161.60000610352</ele>
        <time>2014-01-21T11:04:19.000Z</time>
      </trkpt>
      <trkpt lat="48.69208" lon="1.75708">
        <ele>161.80000305176</ele>
        <time>2014-01-21T11:04:23.000Z</time>
      </trkpt>
      <trkpt lat="48.69222" lon="1.75737">
        <ele>162</ele>
        <time>2014-01-21T11:04:27.000Z</time>
      </trkpt>
      <trkpt lat="48.69237" lon="1.75762">
        <ele>162</ele>
        <time>2014-01-21T11:04:31.000Z</time>
      </trkpt>
      <trkpt lat="48.69258" lon="1.75791">
        <ele>162.60000610352</ele>
        <time>2014-01-21T11:04:36.000Z</time>
      </trkpt>
      <trkpt lat="48.69267" lon="1.75806">
        <ele>163.39999389648</ele>
        <time>2014-01-21T11:04:39.000Z</time>
      </trkpt>
      <trkpt lat="48.69285" lon="1.75822">
        <ele>164.19999694824</ele>
        <time>2014-01-21T11:04:45.000Z</time>
      </trkpt>
      <trkpt lat="48.69289" lon="1.75822">
        <ele>164.19999694824</ele>
        <time>2014-01-21T11:04:46.000Z</time>
      </trkpt>
      <trkpt lat="48.69304" lon="1.75822">
        <ele>164.39999389648</ele>
        <time>2014-01-21T11:04:49.000Z</time>
      </trkpt>
      <trkpt lat="48.69326" lon="1.75824">
        <ele>164.80000305176</ele>
        <time>2014-01-21T11:04:54.000Z</time>
      </trkpt>
      <trkpt lat="48.69351" lon="1.75829">
        <ele>165.19999694824</ele>
        <time>2014-01-21T11:05:00.000Z</time>
      </trkpt>
      <trkpt lat="48.6936" lon="1.75831">
        <ele>165.19999694824</ele>
        <time>2014-01-21T11:05:02.000Z</time>
      </trkpt>
      <trkpt lat="48.69368" lon="1.75832">
        <ele>165.39999389648</ele>
        <time>2014-01-21T11:05:04.000Z</time>
      </trkpt>
      <trkpt lat="48.69377" lon="1.75832">
        <ele>165.60000610352</ele>
        <time>2014-01-21T11:05:06.000Z</time>
      </trkpt>
      <trkpt lat="48.694" lon="1.75838">
        <ele>166</ele>
        <time>2014-01-21T11:05:12.000Z</time>
      </trkpt>
      <trkpt lat="48.69412" lon="1.75843">
        <ele>166.19999694824</ele>
        <time>2014-01-21T11:05:15.000Z</time>
      </trkpt>
      <trkpt lat="48.69427" lon="1.7585">
        <ele>166.39999389648</ele>
        <time>2014-01-21T11:05:19.000Z</time>
      </trkpt>
      <trkpt lat="48.69444" lon="1.75852">
        <ele>166.39999389648</ele>
        <time>2014-01-21T11:05:23.000Z</time>
      </trkpt>
      <trkpt lat="48.69458" lon="1.7585">
        <ele>166</ele>
        <time>2014-01-21T11:05:26.000Z</time>
      </trkpt>
      <trkpt lat="48.69492" lon="1.75851">
        <ele>165.60000610352</ele>
        <time>2014-01-21T11:05:34.000Z</time>
      </trkpt>
      <trkpt lat="48.6951" lon="1.75852">
        <ele>165.80000305176</ele>
        <time>2014-01-21T11:05:39.000Z</time>
      </trkpt>
      <trkpt lat="48.6953" lon="1.75853">
        <ele>166</ele>
        <time>2014-01-21T11:05:45.000Z</time>
      </trkpt>
      <trkpt lat="48.69552" lon="1.75853">
        <ele>166.19999694824</ele>
        <time>2014-01-21T11:05:51.000Z</time>
      </trkpt>
      <trkpt lat="48.69563" lon="1.75858">
        <ele>166.60000610352</ele>
        <time>2014-01-21T11:05:55.000Z</time>
      </trkpt>
      <trkpt lat="48.69577" lon="1.75857">
        <ele>166.80000305176</ele>
        <time>2014-01-21T11:05:59.000Z</time>
      </trkpt>
      <trkpt lat="48.69592" lon="1.75858">
        <ele>166.39999389648</ele>
        <time>2014-01-21T11:06:03.000Z</time>
      </trkpt>
      <trkpt lat="48.69614" lon="1.75866">
        <ele>165.80000305176</ele>
        <time>2014-01-21T11:06:08.000Z</time>
      </trkpt>
      <trkpt lat="48.69617" lon="1.75868">
        <ele>165.60000610352</ele>
        <time>2014-01-21T11:06:09.000Z</time>
      </trkpt>
      <trkpt lat="48.6964" lon="1.75877">
        <ele>165.19999694824</ele>
        <time>2014-01-21T11:06:15.000Z</time>
      </trkpt>
      <trkpt lat="48.69651" lon="1.75886">
        <ele>165.39999389648</ele>
        <time>2014-01-21T11:06:19.000Z</time>
      </trkpt>
      <trkpt lat="48.69653" lon="1.75889">
        <ele>165.39999389648</ele>
        <time>2014-01-21T11:06:20.000Z</time>
      </trkpt>
      <trkpt lat="48.69672" lon="1.75899">
        <ele>165.60000610352</ele>
        <time>2014-01-21T11:06:26.000Z</time>
      </trkpt>
      <trkpt lat="48.69688" lon="1.75904">
        <ele>165.80000305176</ele>
        <time>2014-01-21T11:06:30.000Z</time>
      </trkpt>
      <trkpt lat="48.69708" lon="1.75919">
        <ele>166.60000610352</ele>
        <time>2014-01-21T11:06:36.000Z</time>
      </trkpt>
      <trkpt lat="48.69721" lon="1.7593">
        <ele>167.19999694824</ele>
        <time>2014-01-21T11:06:40.000Z</time>
      </trkpt>
      <trkpt lat="48.69739" lon="1.75938">
        <ele>167.39999389648</ele>
        <time>2014-01-21T11:06:45.000Z</time>
      </trkpt>
      <trkpt lat="48.69759" lon="1.75946">
        <ele>167.60000610352</ele>
        <time>2014-01-21T11:06:50.000Z</time>
      </trkpt>
      <trkpt lat="48.69777" lon="1.75959">
        <ele>167.80000305176</ele>
        <time>2014-01-21T11:06:55.000Z</time>
      </trkpt>
      <trkpt lat="48.69795" lon="1.75974">
        <ele>168</ele>
        <time>2014-01-21T11:07:00.000Z</time>
      </trkpt>
      <trkpt lat="48.69818" lon="1.75983">
        <ele>167.39999389648</ele>
        <time>2014-01-21T11:07:06.000Z</time>
      </trkpt>
      <trkpt lat="48.6984" lon="1.75995">
        <ele>166.80000305176</ele>
        <time>2014-01-21T11:07:12.000Z</time>
      </trkpt>
      <trkpt lat="48.69862" lon="1.76011">
        <ele>167</ele>
        <time>2014-01-21T11:07:18.000Z</time>
      </trkpt>
      <trkpt lat="48.69881" lon="1.76026">
        <ele>167</ele>
        <time>2014-01-21T11:07:23.000Z</time>
      </trkpt>
      <trkpt lat="48.69895" lon="1.76043">
        <ele>167</ele>
        <time>2014-01-21T11:07:28.000Z</time>
      </trkpt>
      <trkpt lat="48.69902" lon="1.76058">
        <ele>166.80000305176</ele>
        <time>2014-01-21T11:07:31.000Z</time>
      </trkpt>
      <trkpt lat="48.69918" lon="1.76073">
        <ele>166</ele>
        <time>2014-01-21T11:07:36.000Z</time>
      </trkpt>
      <trkpt lat="48.6993" lon="1.76081">
        <ele>165.80000305176</ele>
        <time>2014-01-21T11:07:39.000Z</time>
      </trkpt>
      <trkpt lat="48.69949" lon="1.76103">
        <ele>166.19999694824</ele>
        <time>2014-01-21T11:07:44.000Z</time>
      </trkpt>
      <trkpt lat="48.6996" lon="1.76115">
        <ele>166.39999389648</ele>
        <time>2014-01-21T11:07:47.000Z</time>
      </trkpt>
      <trkpt lat="48.69979" lon="1.76142">
        <ele>166.39999389648</ele>
        <time>2014-01-21T11:07:53.000Z</time>
      </trkpt>
      <trkpt lat="48.69985" lon="1.76151">
        <ele>166.39999389648</ele>
        <time>2014-01-21T11:07:55.000Z</time>
      </trkpt>
      <trkpt lat="48.69994" lon="1.76169">
        <ele>166.39999389648</ele>
        <time>2014-01-21T11:07:59.000Z</time>
      </trkpt>
      <trkpt lat="48.7001" lon="1.76191">
        <ele>166.60000610352</ele>
        <time>2014-01-21T11:08:05.000Z</time>
      </trkpt>
      <trkpt lat="48.70027" lon="1.76207">
        <ele>167</ele>
        <time>2014-01-21T11:08:10.000Z</time>
      </trkpt>
      <trkpt lat="48.70036" lon="1.76213">
        <ele>167.19999694824</ele>
        <time>2014-01-21T11:08:12.000Z</time>
      </trkpt>
      <trkpt lat="48.70051" lon="1.76226">
        <ele>167.39999389648</ele>
        <time>2014-01-21T11:08:17.000Z</time>
      </trkpt>
      <trkpt lat="48.70064" lon="1.76237">
        <ele>167.60000610352</ele>
        <time>2014-01-21T11:08:21.000Z</time>
      </trkpt>
      <trkpt lat="48.70077" lon="1.7625">
        <ele>168</ele>
        <time>2014-01-21T11:08:25.000Z</time>
      </trkpt>
      <trkpt lat="48.70093" lon="1.76273">
        <ele>168.39999389648</ele>
        <time>2014-01-21T11:08:30.000Z</time>
      </trkpt>
      <trkpt lat="48.70097" lon="1.76283">
        <ele>168.39999389648</ele>
        <time>2014-01-21T11:08:32.000Z</time>
      </trkpt>
      <trkpt lat="48.70114" lon="1.76311">
        <ele>169</ele>
        <time>2014-01-21T11:08:39.000Z</time>
      </trkpt>
      <trkpt lat="48.70125" lon="1.76318">
        <ele>169.19999694824</ele>
        <time>2014-01-21T11:08:43.000Z</time>
      </trkpt>
      <trkpt lat="48.7013" lon="1.76318">
        <ele>169.19999694824</ele>
        <time>2014-01-21T11:08:45.000Z</time>
      </trkpt>
      <trkpt lat="48.70134" lon="1.7632">
        <ele>169.39999389648</ele>
        <time>2014-01-21T11:08:49.000Z</time>
      </trkpt>
      <trkpt lat="48.70142" lon="1.76328">
        <ele>169.60000610352</ele>
        <time>2014-01-21T11:08:56.000Z</time>
      </trkpt>
      <trkpt lat="48.70144" lon="1.76328">
        <ele>169.60000610352</ele>
        <time>2014-01-21T11:08:57.000Z</time>
      </trkpt>
      <trkpt lat="48.70151" lon="1.76331">
        <ele>169.80000305176</ele>
        <time>2014-01-21T11:09:02.000Z</time>
      </trkpt>
      <trkpt lat="48.70161" lon="1.76337">
        <ele>170</ele>
        <time>2014-01-21T11:09:09.000Z</time>
      </trkpt>
      <trkpt lat="48.70167" lon="1.76339">
        <ele>170.19999694824</ele>
        <time>2014-01-21T11:09:14.000Z</time>
      </trkpt>
      <trkpt lat="48.70176" lon="1.76343">
        <ele>170.39999389648</ele>
        <time>2014-01-21T11:09:20.000Z</time>
      </trkpt>
      <trkpt lat="48.70178" lon="1.76345">
        <ele>170.60000610352</ele>
        <time>2014-01-21T11:09:22.000Z</time>
      </trkpt>
      <trkpt lat="48.70189" lon="1.7635">
        <ele>170.80000305176</ele>
        <time>2014-01-21T11:09:29.000Z</time>
      </trkpt>
      <trkpt lat="48.70198" lon="1.76358">
        <ele>171.19999694824</ele>
        <time>2014-01-21T11:09:36.000Z</time>
      </trkpt>
      <trkpt lat="48.70204" lon="1.76363">
        <ele>171.39999389648</ele>
        <time>2014-01-21T11:09:41.000Z</time>
      </trkpt>
      <trkpt lat="48.70215" lon="1.76369">
        <ele>171.80000305176</ele>
        <time>2014-01-21T11:09:47.000Z</time>
      </trkpt>
      <trkpt lat="48.70222" lon="1.76376">
        <ele>172</ele>
        <time>2014-01-21T11:09:55.000Z</time>
      </trkpt>
      <trkpt lat="48.7023" lon="1.76387">
        <ele>172.39999389648</ele>
        <time>2014-01-21T11:10:03.000Z</time>
      </trkpt>
      <trkpt lat="48.70239" lon="1.76396">
        <ele>172.60000610352</ele>
        <time>2014-01-21T11:10:10.000Z</time>
      </trkpt>
      <trkpt lat="48.70246" lon="1.76405">
        <ele>172.80000305176</ele>
        <time>2014-01-21T11:10:17.000Z</time>
      </trkpt>
      <trkpt lat="48.70249" lon="1.76408">
        <ele>172.80000305176</ele>
        <time>2014-01-21T11:10:20.000Z</time>
      </trkpt>
      <trkpt lat="48.70254" lon="1.76412">
        <ele>173</ele>
        <time>2014-01-21T11:10:24.000Z</time>
      </trkpt>
      <trkpt lat="48.70262" lon="1.7642">
        <ele>173.60000610352</ele>
        <time>2014-01-21T11:10:30.000Z</time>
      </trkpt>
      <trkpt lat="48.70269" lon="1.76426">
        <ele>174</ele>
        <time>2014-01-21T11:10:38.000Z</time>
      </trkpt>
      <trkpt lat="48.70277" lon="1.76428">
        <ele>174.39999389648</ele>
        <time>2014-01-21T11:10:44.000Z</time>
      </trkpt>
      <trkpt lat="48.70281" lon="1.7643">
        <ele>174.60000610352</ele>
        <time>2014-01-21T11:10:47.000Z</time>
      </trkpt>
      <trkpt lat="48.70291" lon="1.7643">
        <ele>174.80000305176</ele>
        <time>2014-01-21T11:10:55.000Z</time>
      </trkpt>
      <trkpt lat="48.70296" lon="1.76431">
        <ele>175</ele>
        <time>2014-01-21T11:10:59.000Z</time>
      </trkpt>
      <trkpt lat="48.70309" lon="1.7643">
        <ele>175.39999389648</ele>
        <time>2014-01-21T11:11:07.000Z</time>
      </trkpt>
      <trkpt lat="48.70312" lon="1.76429">
        <ele>175.60000610352</ele>
        <time>2014-01-21T11:11:09.000Z</time>
      </trkpt>
      <trkpt lat="48.70324" lon="1.76425">
        <ele>175.80000305176</ele>
        <time>2014-01-21T11:11:17.000Z</time>
      </trkpt>
      <trkpt lat="48.70332" lon="1.76419">
        <ele>176</ele>
        <time>2014-01-21T11:11:23.000Z</time>
      </trkpt>
      <trkpt lat="48.7034" lon="1.76414">
        <ele>176</ele>
        <time>2014-01-21T11:11:29.000Z</time>
      </trkpt>
      <trkpt lat="48.70349" lon="1.76412">
        <ele>176.19999694824</ele>
        <time>2014-01-21T11:11:35.000Z</time>
      </trkpt>
      <trkpt lat="48.70358" lon="1.76409">
        <ele>176.19999694824</ele>
        <time>2014-01-21T11:11:42.000Z</time>
      </trkpt>
      <trkpt lat="48.70367" lon="1.76411">
        <ele>176.60000610352</ele>
        <time>2014-01-21T11:11:48.000Z</time>
      </trkpt>
      <trkpt lat="48.70375" lon="1.76409">
        <ele>176.60000610352</ele>
        <time>2014-01-21T11:11:53.000Z</time>
      </trkpt>
      <trkpt lat="48.7038" lon="1.76408">
        <ele>176.80000305176</ele>
        <time>2014-01-21T11:11:58.000Z</time>
      </trkpt>
      <trkpt lat="48.70389" lon="1.76403">
        <ele>176.60000610352</ele>
        <time>2014-01-21T11:12:05.000Z</time>
      </trkpt>
      <trkpt lat="48.7039" lon="1.76403">
        <ele>176.80000305176</ele>
        <time>2014-01-21T11:12:06.000Z</time>
      </trkpt>
      <trkpt lat="48.70399" lon="1.76399">
        <ele>176.80000305176</ele>
        <time>2014-01-21T11:12:12.000Z</time>
      </trkpt>
      <trkpt lat="48.70407" lon="1.76396">
        <ele>176.80000305176</ele>
        <time>2014-01-21T11:12:18.000Z</time>
      </trkpt>
      <trkpt lat="48.70411" lon="1.76392">
        <ele>176.60000610352</ele>
        <time>2014-01-21T11:12:23.000Z</time>
      </trkpt>
      <trkpt lat="48.70415" lon="1.76392">
        <ele>176.80000305176</ele>
        <time>2014-01-21T11:12:26.000Z</time>
      </trkpt>
      <trkpt lat="48.70427" lon="1.76387">
        <ele>176.19999694824</ele>
        <time>2014-01-21T11:12:34.000Z</time>
      </trkpt>
      <trkpt lat="48.70432" lon="1.76384">
        <ele>175.80000305176</ele>
        <time>2014-01-21T11:12:38.000Z</time>
      </trkpt>
      <trkpt lat="48.70439" lon="1.76381">
        <ele>175.39999389648</ele>
        <time>2014-01-21T11:12:43.000Z</time>
      </trkpt>
      <trkpt lat="48.70444" lon="1.76378">
        <ele>175.19999694824</ele>
        <time>2014-01-21T11:12:47.000Z</time>
      </trkpt>
      <trkpt lat="48.70451" lon="1.76372">
        <ele>174.60000610352</ele>
        <time>2014-01-21T11:12:53.000Z</time>
      </trkpt>
      <trkpt lat="48.70451" lon="1.76364">
        <ele>174.19999694824</ele>
        <time>2014-01-21T11:12:59.000Z</time>
      </trkpt>
      <trkpt lat="48.70451" lon="1.7635">
        <ele>173.60000610352</ele>
        <time>2014-01-21T11:13:07.000Z</time>
      </trkpt>
      <trkpt lat="48.7045" lon="1.76347">
        <ele>173.39999389648</ele>
        <time>2014-01-21T11:13:09.000Z</time>
      </trkpt>
      <trkpt lat="48.7045" lon="1.76345">
        <ele>173.39999389648</ele>
        <time>2014-01-21T11:13:12.000Z</time>
      </trkpt>
      <trkpt lat="48.7045" lon="1.76342">
        <ele>173.19999694824</ele>
        <time>2014-01-21T11:13:17.000Z</time>
      </trkpt>
      <trkpt lat="48.70448" lon="1.76338">
        <ele>173</ele>
        <time>2014-01-21T11:13:22.000Z</time>
      </trkpt>
      <trkpt lat="48.70451" lon="1.7633">
        <ele>172.80000305176</ele>
        <time>2014-01-21T11:13:38.000Z</time>
      </trkpt>
      <trkpt lat="48.7045" lon="1.76319">
        <ele>172.80000305176</ele>
        <time>2014-01-21T11:13:42.000Z</time>
      </trkpt>
      <trkpt lat="48.70449" lon="1.76305">
        <ele>172.60000610352</ele>
        <time>2014-01-21T11:13:49.000Z</time>
      </trkpt>
      <trkpt lat="48.7045" lon="1.76299">
        <ele>172.60000610352</ele>
        <time>2014-01-21T11:13:52.000Z</time>
      </trkpt>
      <trkpt lat="48.7045" lon="1.76291">
        <ele>172.60000610352</ele>
        <time>2014-01-21T11:13:56.000Z</time>
      </trkpt>
      <trkpt lat="48.70453" lon="1.76276">
        <ele>172.39999389648</ele>
        <time>2014-01-21T11:14:04.000Z</time>
      </trkpt>
      <trkpt lat="48.70455" lon="1.76269">
        <ele>172.19999694824</ele>
        <time>2014-01-21T11:14:08.000Z</time>
      </trkpt>
      <trkpt lat="48.70457" lon="1.76263">
        <ele>172.19999694824</ele>
        <time>2014-01-21T11:14:12.000Z</time>
      </trkpt>
      <trkpt lat="48.70458" lon="1.76248">
        <ele>172</ele>
        <time>2014-01-21T11:14:19.000Z</time>
      </trkpt>
      <trkpt lat="48.7046" lon="1.76236">
        <ele>172.19999694824</ele>
        <time>2014-01-21T11:14:25.000Z</time>
      </trkpt>
      <trkpt lat="48.70461" lon="1.76219">
        <ele>172.60000610352</ele>
        <time>2014-01-21T11:14:33.000Z</time>
      </trkpt>
      <trkpt lat="48.70461" lon="1.76213">
        <ele>172.80000305176</ele>
        <time>2014-01-21T11:14:36.000Z</time>
      </trkpt>
      <trkpt lat="48.70459" lon="1.76198">
        <ele>173.19999694824</ele>
        <time>2014-01-21T11:14:43.000Z</time>
      </trkpt>
      <trkpt lat="48.70458" lon="1.76188">
        <ele>173.39999389648</ele>
        <time>2014-01-21T11:14:47.000Z</time>
      </trkpt>
      <trkpt lat="48.70455" lon="1.76172">
        <ele>174</ele>
        <time>2014-01-21T11:14:54.000Z</time>
      </trkpt>
      <trkpt lat="48.70455" lon="1.7616">
        <ele>174.19999694824</ele>
        <time>2014-01-21T11:14:59.000Z</time>
      </trkpt>
      <trkpt lat="48.70453" lon="1.76145">
        <ele>174.60000610352</ele>
        <time>2014-01-21T11:15:05.000Z</time>
      </trkpt>
      <trkpt lat="48.70454" lon="1.76136">
        <ele>174.60000610352</ele>
        <time>2014-01-21T11:15:10.000Z</time>
      </trkpt>
      <trkpt lat="48.70457" lon="1.76121">
        <ele>174.60000610352</ele>
        <time>2014-01-21T11:15:19.000Z</time>
      </trkpt>
      <trkpt lat="48.70461" lon="1.76109">
        <ele>174.60000610352</ele>
        <time>2014-01-21T11:15:25.000Z</time>
      </trkpt>
      <trkpt lat="48.70462" lon="1.76107">
        <ele>174.60000610352</ele>
        <time>2014-01-21T11:15:26.000Z</time>
      </trkpt>
      <trkpt lat="48.70465" lon="1.76096">
        <ele>174.60000610352</ele>
        <time>2014-01-21T11:15:32.000Z</time>
      </trkpt>
      <trkpt lat="48.70468" lon="1.76083">
        <ele>174.60000610352</ele>
        <time>2014-01-21T11:15:39.000Z</time>
      </trkpt>
      <trkpt lat="48.70473" lon="1.76066">
        <ele>175.19999694824</ele>
        <time>2014-01-21T11:15:48.000Z</time>
      </trkpt>
      <trkpt lat="48.70473" lon="1.76064">
        <ele>175.39999389648</ele>
        <time>2014-01-21T11:15:49.000Z</time>
      </trkpt>
      <trkpt lat="48.70476" lon="1.76055">
        <ele>175.80000305176</ele>
        <time>2014-01-21T11:15:54.000Z</time>
      </trkpt>
      <trkpt lat="48.70478" lon="1.76037">
        <ele>176.60000610352</ele>
        <time>2014-01-21T11:16:01.000Z</time>
      </trkpt>
      <trkpt lat="48.70482" lon="1.76022">
        <ele>177.39999389648</ele>
        <time>2014-01-21T11:16:08.000Z</time>
      </trkpt>
      <trkpt lat="48.70482" lon="1.7602">
        <ele>177.39999389648</ele>
        <time>2014-01-21T11:16:09.000Z</time>
      </trkpt>
      <trkpt lat="48.70486" lon="1.76007">
        <ele>178</ele>
        <time>2014-01-21T11:16:16.000Z</time>
      </trkpt>
      <trkpt lat="48.70489" lon="1.75996">
        <ele>178.60000610352</ele>
        <time>2014-01-21T11:16:21.000Z</time>
      </trkpt>
      <trkpt lat="48.70495" lon="1.75983">
        <ele>179</ele>
        <time>2014-01-21T11:16:30.000Z</time>
      </trkpt>
      <trkpt lat="48.705" lon="1.75971">
        <ele>179.39999389648</ele>
        <time>2014-01-21T11:16:36.000Z</time>
      </trkpt>
      <trkpt lat="48.70505" lon="1.75959">
        <ele>179.60000610352</ele>
        <time>2014-01-21T11:16:43.000Z</time>
      </trkpt>
      <trkpt lat="48.70511" lon="1.75953">
        <ele>179.39999389648</ele>
        <time>2014-01-21T11:16:48.000Z</time>
      </trkpt>
      <trkpt lat="48.70512" lon="1.75952">
        <ele>179.39999389648</ele>
        <time>2014-01-21T11:16:49.000Z</time>
      </trkpt>
      <trkpt lat="48.70516" lon="1.75944">
        <ele>179.60000610352</ele>
        <time>2014-01-21T11:16:54.000Z</time>
      </trkpt>
      <trkpt lat="48.70523" lon="1.75935">
        <ele>179.39999389648</ele>
        <time>2014-01-21T11:17:01.000Z</time>
      </trkpt>
      <trkpt lat="48.70525" lon="1.75933">
        <ele>179.39999389648</ele>
        <time>2014-01-21T11:17:03.000Z</time>
      </trkpt>
      <trkpt lat="48.70531" lon="1.75925">
        <ele>179.39999389648</ele>
        <time>2014-01-21T11:17:10.000Z</time>
      </trkpt>
      <trkpt lat="48.70533" lon="1.75921">
        <ele>179.39999389648</ele>
        <time>2014-01-21T11:17:12.000Z</time>
      </trkpt>
      <trkpt lat="48.70539" lon="1.75906">
        <ele>179.39999389648</ele>
        <time>2014-01-21T11:17:20.000Z</time>
      </trkpt>
      <trkpt lat="48.70543" lon="1.75898">
        <ele>179.19999694824</ele>
        <time>2014-01-21T11:17:25.000Z</time>
      </trkpt>
      <trkpt lat="48.70548" lon="1.75889">
        <ele>178.80000305176</ele>
        <time>2014-01-21T11:17:32.000Z</time>
      </trkpt>
      <trkpt lat="48.7055" lon="1.75882">
        <ele>178.80000305176</ele>
        <time>2014-01-21T11:17:36.000Z</time>
      </trkpt>
      <trkpt lat="48.70552" lon="1.75875">
        <ele>178.60000610352</ele>
        <time>2014-01-21T11:17:40.000Z</time>
      </trkpt>
      <trkpt lat="48.70557" lon="1.75865">
        <ele>178.19999694824</ele>
        <time>2014-01-21T11:17:47.000Z</time>
      </trkpt>
      <trkpt lat="48.7056" lon="1.75857">
        <ele>178.19999694824</ele>
        <time>2014-01-21T11:17:51.000Z</time>
      </trkpt>
      <trkpt lat="48.70562" lon="1.75854">
        <ele>178</ele>
        <time>2014-01-21T11:17:53.000Z</time>
      </trkpt>
      <trkpt lat="48.70566" lon="1.75841">
        <ele>177.60000610352</ele>
        <time>2014-01-21T11:18:00.000Z</time>
      </trkpt>
      <trkpt lat="48.70573" lon="1.75829">
        <ele>177.19999694824</ele>
        <time>2014-01-21T11:18:08.000Z</time>
      </trkpt>
      <trkpt lat="48.7058" lon="1.75817">
        <ele>177</ele>
        <time>2014-01-21T11:18:17.000Z</time>
      </trkpt>
      <trkpt lat="48.70586" lon="1.75804">
        <ele>177</ele>
        <time>2014-01-21T11:18:24.000Z</time>
      </trkpt>
      <trkpt lat="48.70587" lon="1.75797">
        <ele>177.19999694824</ele>
        <time>2014-01-21T11:18:27.000Z</time>
      </trkpt>
      <trkpt lat="48.70591" lon="1.75792">
        <ele>177</ele>
        <time>2014-01-21T11:18:32.000Z</time>
      </trkpt>
      <trkpt lat="48.70593" lon="1.7579">
        <ele>177</ele>
        <time>2014-01-21T11:18:34.000Z</time>
      </trkpt>
      <trkpt lat="48.70599" lon="1.7578">
        <ele>177</ele>
        <time>2014-01-21T11:18:41.000Z</time>
      </trkpt>
      <trkpt lat="48.70603" lon="1.75771">
        <ele>177</ele>
        <time>2014-01-21T11:18:46.000Z</time>
      </trkpt>
      <trkpt lat="48.70606" lon="1.75764">
        <ele>177.19999694824</ele>
        <time>2014-01-21T11:18:50.000Z</time>
      </trkpt>
      <trkpt lat="48.7061" lon="1.75757">
        <ele>177.19999694824</ele>
        <time>2014-01-21T11:18:55.000Z</time>
      </trkpt>
      <trkpt lat="48.70619" lon="1.75745">
        <ele>177.19999694824</ele>
        <time>2014-01-21T11:19:04.000Z</time>
      </trkpt>
      <trkpt lat="48.70622" lon="1.75736">
        <ele>177.39999389648</ele>
        <time>2014-01-21T11:19:09.000Z</time>
      </trkpt>
      <trkpt lat="48.70628" lon="1.75727">
        <ele>177.19999694824</ele>
        <time>2014-01-21T11:19:17.000Z</time>
      </trkpt>
      <trkpt lat="48.70629" lon="1.75723">
        <ele>177.39999389648</ele>
        <time>2014-01-21T11:19:28.000Z</time>
      </trkpt>
      <trkpt lat="48.70634" lon="1.75705">
        <ele>177.60000610352</ele>
        <time>2014-01-21T11:20:14.000Z</time>
      </trkpt>
      <trkpt lat="48.70637" lon="1.75697">
        <ele>177.60000610352</ele>
        <time>2014-01-21T11:20:19.000Z</time>
      </trkpt>
      <trkpt lat="48.70638" lon="1.75695">
        <ele>177.60000610352</ele>
        <time>2014-01-21T11:20:20.000Z</time>
      </trkpt>
      <trkpt lat="48.70641" lon="1.75687">
        <ele>177.39999389648</ele>
        <time>2014-01-21T11:20:25.000Z</time>
      </trkpt>
      <trkpt lat="48.70641" lon="1.75676">
        <ele>177.80000305176</ele>
        <time>2014-01-21T11:20:31.000Z</time>
      </trkpt>
      <trkpt lat="48.70641" lon="1.75673">
        <ele>177.80000305176</ele>
        <time>2014-01-21T11:20:32.000Z</time>
      </trkpt>
      <trkpt lat="48.70641" lon="1.75665">
        <ele>178.19999694824</ele>
        <time>2014-01-21T11:20:36.000Z</time>
      </trkpt>
      <trkpt lat="48.70642" lon="1.75651">
        <ele>177.80000305176</ele>
        <time>2014-01-21T11:20:43.000Z</time>
      </trkpt>
      <trkpt lat="48.70642" lon="1.75643">
        <ele>177.80000305176</ele>
        <time>2014-01-21T11:20:47.000Z</time>
      </trkpt>
      <trkpt lat="48.70644" lon="1.75628">
        <ele>177.39999389648</ele>
        <time>2014-01-21T11:20:55.000Z</time>
      </trkpt>
      <trkpt lat="48.70646" lon="1.75621">
        <ele>177.19999694824</ele>
        <time>2014-01-21T11:21:00.000Z</time>
      </trkpt>
      <trkpt lat="48.70647" lon="1.75614">
        <ele>177</ele>
        <time>2014-01-21T11:21:04.000Z</time>
      </trkpt>
      <trkpt lat="48.70649" lon="1.75608">
        <ele>176.80000305176</ele>
        <time>2014-01-21T11:21:08.000Z</time>
      </trkpt>
      <trkpt lat="48.70649" lon="1.75605">
        <ele>176.80000305176</ele>
        <time>2014-01-21T11:21:14.000Z</time>
      </trkpt>
      <trkpt lat="48.70661" lon="1.75578">
        <ele>175.39999389648</ele>
        <time>2014-01-21T11:21:47.000Z</time>
      </trkpt>
      <trkpt lat="48.70669" lon="1.75565">
        <ele>174.39999389648</ele>
        <time>2014-01-21T11:21:55.000Z</time>
      </trkpt>
      <trkpt lat="48.70675" lon="1.75552">
        <ele>174</ele>
        <time>2014-01-21T11:22:04.000Z</time>
      </trkpt>
      <trkpt lat="48.70681" lon="1.75539">
        <ele>173.60000610352</ele>
        <time>2014-01-21T11:22:12.000Z</time>
      </trkpt>
      <trkpt lat="48.70688" lon="1.75521">
        <ele>173</ele>
        <time>2014-01-21T11:22:23.000Z</time>
      </trkpt>
      <trkpt lat="48.70688" lon="1.7552">
        <ele>173</ele>
        <time>2014-01-21T11:22:25.000Z</time>
      </trkpt>
      <trkpt lat="48.70699" lon="1.75494">
        <ele>172.19999694824</ele>
        <time>2014-01-21T11:22:58.000Z</time>
      </trkpt>
      <trkpt lat="48.70702" lon="1.75484">
        <ele>172</ele>
        <time>2014-01-21T11:23:03.000Z</time>
      </trkpt>
      <trkpt lat="48.70701" lon="1.75481">
        <ele>172</ele>
        <time>2014-01-21T11:23:08.000Z</time>
      </trkpt>
      <trkpt lat="48.70701" lon="1.75481">
        <ele>172</ele>
        <time>2014-01-21T11:23:10.000Z</time>
      </trkpt>
      <trkpt lat="48.70701" lon="1.75471">
        <ele>172</ele>
        <time>2014-01-21T11:24:41.000Z</time>
      </trkpt>
      <trkpt lat="48.70703" lon="1.7547">
        <ele>171.80000305176</ele>
        <time>2014-01-21T11:24:42.000Z</time>
      </trkpt>
      <trkpt lat="48.70709" lon="1.75461">
        <ele>171.80000305176</ele>
        <time>2014-01-21T11:24:49.000Z</time>
      </trkpt>
      <trkpt lat="48.70709" lon="1.75455">
        <ele>171.80000305176</ele>
        <time>2014-01-21T11:24:55.000Z</time>
      </trkpt>
      <trkpt lat="48.70709" lon="1.75455">
        <ele>171.80000305176</ele>
        <time>2014-01-21T11:24:56.000Z</time>
      </trkpt>
    </trkseg>
  </trk>
</gpx>